<?xml version="1.0" encoding="UTF-8" standalone="no" ?>
<gpx xmlns="http://www.topografix.com/GPX/1/1" xmlns:xsi="http://www.w3.org/2001/XMLSchema-instance" xsi:schemaLocation="http://www.topografix.com/GPX/1/1 http://www.topografix.com/GPX/1/1/gpx.xsd" version="1.1" creator="VisuGPX - https://www.visugpx.com">
  <metadata>
    <name>La belle étoile</name>
  </metadata>
  <trk>
    <name><![CDATA[La belle étoile_1]]></name>
    <trkseg>
      <trkpt lat="47.20981" lon="5.92972">
        <ele>284.536479</ele>
        <time>2021-08-31T18:21:46.501Z</time>
      </trkpt>
      <trkpt lat="47.20978" lon="5.92955">
        <ele>284.528863</ele>
        <time>2021-08-31T18:21:48.627Z</time>
      </trkpt>
      <trkpt lat="47.20979" lon="5.92944">
        <ele>284.523823</ele>
        <time>2021-08-31T18:21:50.445Z</time>
      </trkpt>
      <trkpt lat="47.20961" lon="5.92903">
        <ele>284.502744</ele>
        <time>2021-08-31T18:22:00.790Z</time>
      </trkpt>
      <trkpt lat="47.20955" lon="5.92897">
        <ele>284.497884</ele>
        <time>2021-08-31T18:22:03.573Z</time>
      </trkpt>
      <trkpt lat="47.20917" lon="5.92884">
        <ele>284.472339</ele>
        <time>2021-08-31T18:22:16.756Z</time>
      </trkpt>
      <trkpt lat="47.20876" lon="5.92834">
        <ele>284.513108</ele>
        <time>2021-08-31T18:22:35.119Z</time>
      </trkpt>
      <trkpt lat="47.20828" lon="5.92812">
        <ele>284.558582</ele>
        <time>2021-08-31T18:22:52.638Z</time>
      </trkpt>
      <trkpt lat="47.20792" lon="5.92743">
        <ele>284.612842</ele>
        <time>2021-08-31T18:23:11.074Z</time>
      </trkpt>
      <trkpt lat="47.20788" lon="5.92718">
        <ele>284.628583</ele>
        <time>2021-08-31T18:23:16.305Z</time>
      </trkpt>
      <trkpt lat="47.20784" lon="5.92685">
        <ele>284.456478</ele>
        <time>2021-08-31T18:23:23.220Z</time>
      </trkpt>
      <trkpt lat="47.20757" lon="5.92617">
        <ele>283.928608</ele>
        <time>2021-08-31T18:23:39.233Z</time>
      </trkpt>
      <trkpt lat="47.20739" lon="5.92593">
        <ele>283.690718</ele>
        <time>2021-08-31T18:23:46.422Z</time>
      </trkpt>
      <trkpt lat="47.20733" lon="5.92584">
        <ele>283.600082</ele>
        <time>2021-08-31T18:23:49.037Z</time>
      </trkpt>
      <trkpt lat="47.207" lon="5.9253">
        <ele>283.117674</ele>
        <time>2021-08-31T18:24:03.182Z</time>
      </trkpt>
      <trkpt lat="47.20659" lon="5.92507">
        <ele>282.434158</ele>
        <time>2021-08-31T18:24:15.491Z</time>
      </trkpt>
      <trkpt lat="47.20624" lon="5.92502">
        <ele>281.562968</ele>
        <time>2021-08-31T18:24:25.385Z</time>
      </trkpt>
      <trkpt lat="47.20578" lon="5.92462">
        <ele>280.277838</ele>
        <time>2021-08-31T18:24:39.756Z</time>
      </trkpt>
      <trkpt lat="47.20522" lon="5.92364">
        <ele>278.024546</ele>
        <time>2021-08-31T18:25:02.335Z</time>
      </trkpt>
      <trkpt lat="47.20485" lon="5.92333">
        <ele>276.470283</ele>
        <time>2021-08-31T18:25:13.275Z</time>
      </trkpt>
      <trkpt lat="47.20443" lon="5.92289">
        <ele>274.624544</ele>
        <time>2021-08-31T18:25:26.170Z</time>
      </trkpt>
      <trkpt lat="47.20431" lon="5.9227">
        <ele>273.979855</ele>
        <time>2021-08-31T18:25:30.756Z</time>
      </trkpt>
      <trkpt lat="47.20413" lon="5.92243">
        <ele>273.050451</ele>
        <time>2021-08-31T18:25:37.098Z</time>
      </trkpt>
      <trkpt lat="47.20363" lon="5.9215">
        <ele>270.018831</ele>
        <time>2021-08-31T18:25:57.536Z</time>
      </trkpt>
      <trkpt lat="47.20334" lon="5.92103">
        <ele>268.330713</ele>
        <time>2021-08-31T18:26:08.344Z</time>
      </trkpt>
      <trkpt lat="47.20325" lon="5.92098">
        <ele>267.976117</ele>
        <time>2021-08-31T18:26:10.404Z</time>
      </trkpt>
      <trkpt lat="47.20329" lon="5.92086">
        <ele>267.61616</ele>
        <time>2021-08-31T18:26:12.765Z</time>
      </trkpt>
      <trkpt lat="47.20334" lon="5.9205">
        <ele>266.657962</ele>
        <time>2021-08-31T18:26:18.955Z</time>
      </trkpt>
      <trkpt lat="47.20337" lon="5.92035">
        <ele>266.252972</ele>
        <time>2021-08-31T18:26:21.632Z</time>
      </trkpt>
      <trkpt lat="47.20346" lon="5.92011">
        <ele>265.532299</ele>
        <time>2021-08-31T18:26:26.549Z</time>
      </trkpt>
      <trkpt lat="47.20348" lon="5.91999">
        <ele>265.194281</ele>
        <time>2021-08-31T18:26:28.563Z</time>
      </trkpt>
      <trkpt lat="47.20333" lon="5.91962">
        <ele>264.345569</ele>
        <time>2021-08-31T18:26:36.283Z</time>
      </trkpt>
      <trkpt lat="47.20316" lon="5.91939">
        <ele>263.700088</ele>
        <time>2021-08-31T18:26:42.215Z</time>
      </trkpt>
      <trkpt lat="47.20309" lon="5.9193">
        <ele>263.445472</ele>
        <time>2021-08-31T18:26:44.624Z</time>
      </trkpt>
      <trkpt lat="47.20273" lon="5.91819">
        <ele>261.133775</ele>
        <time>2021-08-31T18:27:06.327Z</time>
      </trkpt>
      <trkpt lat="47.20275" lon="5.91725">
        <ele>259.889885</ele>
        <time>2021-08-31T18:27:23.696Z</time>
      </trkpt>
      <trkpt lat="47.20227" lon="5.91671">
        <ele>259.472156</ele>
        <time>2021-08-31T18:27:41.812Z</time>
      </trkpt>
      <trkpt lat="47.20221" lon="5.91657">
        <ele>259.3924</ele>
        <time>2021-08-31T18:27:45.324Z</time>
      </trkpt>
      <trkpt lat="47.20213" lon="5.91604">
        <ele>259.135742</ele>
        <time>2021-08-31T18:27:56.785Z</time>
      </trkpt>
      <trkpt lat="47.20196" lon="5.91574">
        <ele>258.951294</ele>
        <time>2021-08-31T18:28:05.143Z</time>
      </trkpt>
      <trkpt lat="47.20177" lon="5.91528">
        <ele>258.815229</ele>
        <time>2021-08-31T18:28:16.752Z</time>
      </trkpt>
      <trkpt lat="47.2015" lon="5.91484">
        <ele>258.815306</ele>
        <time>2021-08-31T18:28:29.645Z</time>
      </trkpt>
      <trkpt lat="47.20117" lon="5.91347">
        <ele>258.815494</ele>
        <time>2021-08-31T18:29:00.909Z</time>
      </trkpt>
      <trkpt lat="47.20074" lon="5.91241">
        <ele>259.290697</ele>
        <time>2021-08-31T18:29:27.713Z</time>
      </trkpt>
      <trkpt lat="47.20048" lon="5.91182">
        <ele>259.665668</ele>
        <time>2021-08-31T18:29:44.165Z</time>
      </trkpt>
      <trkpt lat="47.20006" lon="5.91107">
        <ele>260.187536</ele>
        <time>2021-08-31T18:30:08.947Z</time>
      </trkpt>
      <trkpt lat="47.19902" lon="5.90882">
        <ele>264.219481</ele>
        <time>2021-08-31T18:31:30.308Z</time>
      </trkpt>
      <trkpt lat="47.19867" lon="5.90817">
        <ele>263.620199</ele>
        <time>2021-08-31T18:31:54.686Z</time>
      </trkpt>
      <trkpt lat="47.19843" lon="5.90734">
        <ele>262.911454</ele>
        <time>2021-08-31T18:32:12.846Z</time>
      </trkpt>
      <trkpt lat="47.19815" lon="5.90686">
        <ele>262.420419</ele>
        <time>2021-08-31T18:32:23.654Z</time>
      </trkpt>
      <trkpt lat="47.19805" lon="5.90661">
        <ele>262.199092</ele>
        <time>2021-08-31T18:32:28.514Z</time>
      </trkpt>
      <trkpt lat="47.19804" lon="5.90638">
        <ele>261.21281</ele>
        <time>2021-08-31T18:32:32.221Z</time>
      </trkpt>
      <trkpt lat="47.19805" lon="5.90638">
        <ele>261.166761</ele>
        <time>2021-08-31T18:32:32.527Z</time>
      </trkpt>
      <trkpt lat="47.1979" lon="5.90627">
        <ele>260.069443</ele>
        <time>2021-08-31T18:32:39.699Z</time>
      </trkpt>
      <trkpt lat="47.19784" lon="5.90616">
        <ele>259.441882</ele>
        <time>2021-08-31T18:32:43.810Z</time>
      </trkpt>
      <trkpt lat="47.19794" lon="5.90581">
        <ele>257.752697</ele>
        <time>2021-08-31T18:32:54.856Z</time>
      </trkpt>
      <trkpt lat="47.19806" lon="5.90563">
        <ele>256.630806</ele>
        <time>2021-08-31T18:33:02.203Z</time>
      </trkpt>
      <trkpt lat="47.19825" lon="5.90553">
        <ele>255.309596</ele>
        <time>2021-08-31T18:33:10.843Z</time>
      </trkpt>
      <trkpt lat="47.1984" lon="5.90554">
        <ele>254.326442</ele>
        <time>2021-08-31T18:33:17.284Z</time>
      </trkpt>
      <trkpt lat="47.19846" lon="5.90547">
        <ele>253.825122</ele>
        <time>2021-08-31T18:33:20.565Z</time>
      </trkpt>
      <trkpt lat="47.19846" lon="5.90535">
        <ele>253.291257</ele>
        <time>2021-08-31T18:33:24.056Z</time>
      </trkpt>
      <trkpt lat="47.19828" lon="5.90486">
        <ele>250.813107</ele>
        <time>2021-08-31T18:33:40.290Z</time>
      </trkpt>
      <trkpt lat="47.19825" lon="5.90481">
        <ele>250.512426</ele>
        <time>2021-08-31T18:33:42.257Z</time>
      </trkpt>
      <trkpt lat="47.19827" lon="5.90474">
        <ele>250.193322</ele>
        <time>2021-08-31T18:33:42.909Z</time>
      </trkpt>
      <trkpt lat="47.19836" lon="5.90431">
        <ele>248.548543</ele>
        <time>2021-08-31T18:33:46.736Z</time>
      </trkpt>
      <trkpt lat="47.19829" lon="5.90406">
        <ele>247.571593</ele>
        <time>2021-08-31T18:33:48.985Z</time>
      </trkpt>
      <trkpt lat="47.19821" lon="5.904">
        <ele>247.087076</ele>
        <time>2021-08-31T18:33:50.137Z</time>
      </trkpt>
      <trkpt lat="47.19818" lon="5.90398">
        <ele>246.933562</ele>
        <time>2021-08-31T18:33:50.493Z</time>
      </trkpt>
      <trkpt lat="47.19775" lon="5.90407">
        <ele>244.614057</ele>
        <time>2021-08-31T18:33:56.236Z</time>
      </trkpt>
      <trkpt lat="47.19768" lon="5.90409">
        <ele>244.214446</ele>
        <time>2021-08-31T18:33:57.262Z</time>
      </trkpt>
      <trkpt lat="47.19759" lon="5.90407">
        <ele>243.70751</ele>
        <time>2021-08-31T18:33:58.560Z</time>
      </trkpt>
      <trkpt lat="47.19741" lon="5.90387">
        <ele>242.524048</ele>
        <time>2021-08-31T18:34:01.609Z</time>
      </trkpt>
      <trkpt lat="47.19736" lon="5.90368">
        <ele>241.770329</ele>
        <time>2021-08-31T18:34:03.648Z</time>
      </trkpt>
      <trkpt lat="47.19736" lon="5.90315">
        <ele>240.903492</ele>
        <time>2021-08-31T18:34:09.007Z</time>
      </trkpt>
      <trkpt lat="47.19739" lon="5.90299">
        <ele>240.964457</ele>
        <time>2021-08-31T18:34:10.555Z</time>
      </trkpt>
      <trkpt lat="47.19748" lon="5.90275">
        <ele>241.066983</ele>
        <time>2021-08-31T18:34:15.071Z</time>
      </trkpt>
      <trkpt lat="47.19751" lon="5.90257">
        <ele>241.13943</ele>
        <time>2021-08-31T18:34:17.082Z</time>
      </trkpt>
      <trkpt lat="47.19749" lon="5.90238">
        <ele>241.20917</ele>
        <time>2021-08-31T18:34:20.493Z</time>
      </trkpt>
      <trkpt lat="47.19745" lon="5.90223">
        <ele>241.27257</ele>
        <time>2021-08-31T18:34:23.168Z</time>
      </trkpt>
      <trkpt lat="47.19717" lon="5.90155">
        <ele>241.571825</ele>
        <time>2021-08-31T18:34:37.571Z</time>
      </trkpt>
      <trkpt lat="47.19704" lon="5.90109">
        <ele>241.762251</ele>
        <time>2021-08-31T18:34:48.092Z</time>
      </trkpt>
      <trkpt lat="47.19705" lon="5.90094">
        <ele>241.871487</ele>
        <time>2021-08-31T18:34:52.020Z</time>
      </trkpt>
      <trkpt lat="47.197" lon="5.90073">
        <ele>242.268095</ele>
        <time>2021-08-31T18:34:57.365Z</time>
      </trkpt>
      <trkpt lat="47.19693" lon="5.90057">
        <ele>242.619067</ele>
        <time>2021-08-31T18:35:01.950Z</time>
      </trkpt>
      <trkpt lat="47.19693" lon="5.90025">
        <ele>243.206601</ele>
        <time>2021-08-31T18:35:09.675Z</time>
      </trkpt>
      <trkpt lat="47.19689" lon="5.89998">
        <ele>243.707695</ele>
        <time>2021-08-31T18:35:16.540Z</time>
      </trkpt>
      <trkpt lat="47.19689" lon="5.8997">
        <ele>244.21922</ele>
        <time>2021-08-31T18:35:22.191Z</time>
      </trkpt>
      <trkpt lat="47.19689" lon="5.89958">
        <ele>244.435267</ele>
        <time>2021-08-31T18:35:25.118Z</time>
      </trkpt>
      <trkpt lat="47.19683" lon="5.89933">
        <ele>244.906602</ele>
        <time>2021-08-31T18:35:31.096Z</time>
      </trkpt>
      <trkpt lat="47.1965" lon="5.89854">
        <ele>246.585376</ele>
        <time>2021-08-31T18:35:51.886Z</time>
      </trkpt>
      <trkpt lat="47.19646" lon="5.89823">
        <ele>247.023268</ele>
        <time>2021-08-31T18:35:57.627Z</time>
      </trkpt>
      <trkpt lat="47.19644" lon="5.89748">
        <ele>248.033626</ele>
        <time>2021-08-31T18:36:10.897Z</time>
      </trkpt>
      <trkpt lat="47.19636" lon="5.89679">
        <ele>248.975166</ele>
        <time>2021-08-31T18:36:22.772Z</time>
      </trkpt>
      <trkpt lat="47.19638" lon="5.8966">
        <ele>249.233244</ele>
        <time>2021-08-31T18:36:26.845Z</time>
      </trkpt>
      <trkpt lat="47.19657" lon="5.89609">
        <ele>250.020804</ele>
        <time>2021-08-31T18:36:39.585Z</time>
      </trkpt>
      <trkpt lat="47.1966" lon="5.89592">
        <ele>250.302065</ele>
        <time>2021-08-31T18:36:43.682Z</time>
      </trkpt>
      <trkpt lat="47.19642" lon="5.89512">
        <ele>252.032409</ele>
        <time>2021-08-31T18:37:04.754Z</time>
      </trkpt>
      <trkpt lat="47.19614" lon="5.89417">
        <ele>254.171458</ele>
        <time>2021-08-31T18:37:30.075Z</time>
      </trkpt>
      <trkpt lat="47.19585" lon="5.89334">
        <ele>256.108114</ele>
        <time>2021-08-31T18:37:51.871Z</time>
      </trkpt>
      <trkpt lat="47.1958" lon="5.89314">
        <ele>256.589178</ele>
        <time>2021-08-31T18:37:57.321Z</time>
      </trkpt>
      <trkpt lat="47.19573" lon="5.89273">
        <ele>257.528364</ele>
        <time>2021-08-31T18:38:07.663Z</time>
      </trkpt>
      <trkpt lat="47.19569" lon="5.89224">
        <ele>258.633237</ele>
        <time>2021-08-31T18:38:19.902Z</time>
      </trkpt>
      <trkpt lat="47.19564" lon="5.89111">
        <ele>261.135291</ele>
        <time>2021-08-31T18:38:48.234Z</time>
      </trkpt>
      <trkpt lat="47.19555" lon="5.89085">
        <ele>261.82658</ele>
        <time>2021-08-31T18:38:58.358Z</time>
      </trkpt>
      <trkpt lat="47.19527" lon="5.8904">
        <ele>263.276598</ele>
        <time>2021-08-31T18:39:18.738Z</time>
      </trkpt>
      <trkpt lat="47.19456" lon="5.8893">
        <ele>266.90692</ele>
        <time>2021-08-31T18:40:10.726Z</time>
      </trkpt>
      <trkpt lat="47.19404" lon="5.88777">
        <ele>270.01516</ele>
        <time>2021-08-31T18:41:05.965Z</time>
      </trkpt>
      <trkpt lat="47.19357" lon="5.8855">
        <ele>272.268147</ele>
        <time>2021-08-31T18:42:10.387Z</time>
      </trkpt>
      <trkpt lat="47.19296" lon="5.88488">
        <ele>272.352242</ele>
        <time>2021-08-31T18:42:33.810Z</time>
      </trkpt>
      <trkpt lat="47.19219" lon="5.88495">
        <ele>270.915775</ele>
        <time>2021-08-31T18:42:54.994Z</time>
      </trkpt>
      <trkpt lat="47.19187" lon="5.88511">
        <ele>269.749521</ele>
        <time>2021-08-31T18:43:03.706Z</time>
      </trkpt>
      <trkpt lat="47.19053" lon="5.88581">
        <ele>264.677684</ele>
        <time>2021-08-31T18:43:38.778Z</time>
      </trkpt>
      <trkpt lat="47.18959" lon="5.88566">
        <ele>261.041919</ele>
        <time>2021-08-31T18:44:01.846Z</time>
      </trkpt>
      <trkpt lat="47.18904" lon="5.88538">
        <ele>259.289493</ele>
        <time>2021-08-31T18:44:17.241Z</time>
      </trkpt>
      <trkpt lat="47.18882" lon="5.8853">
        <ele>259.312615</ele>
        <time>2021-08-31T18:44:23.805Z</time>
      </trkpt>
      <trkpt lat="47.18843" lon="5.88495">
        <ele>259.35854</ele>
        <time>2021-08-31T18:44:37.107Z</time>
      </trkpt>
      <trkpt lat="47.18833" lon="5.88515">
        <ele>259.375965</ele>
        <time>2021-08-31T18:44:40.858Z</time>
      </trkpt>
      <trkpt lat="47.18814" lon="5.88544">
        <ele>259.403758</ele>
        <time>2021-08-31T18:44:45.843Z</time>
      </trkpt>
      <trkpt lat="47.18813" lon="5.88545">
        <ele>259.404869</ele>
        <time>2021-08-31T18:44:46.801Z</time>
      </trkpt>
      <trkpt lat="47.18751" lon="5.88634">
        <ele>260.896291</ele>
        <time>2021-08-31T18:45:12.495Z</time>
      </trkpt>
      <trkpt lat="47.18782" lon="5.88735">
        <ele>264.207595</ele>
        <time>2021-08-31T18:45:46.425Z</time>
      </trkpt>
      <trkpt lat="47.18764" lon="5.88746">
        <ele>265.035633</ele>
        <time>2021-08-31T18:45:55.270Z</time>
      </trkpt>
      <trkpt lat="47.1874" lon="5.88751">
        <ele>266.148621</ele>
        <time>2021-08-31T18:46:06.036Z</time>
      </trkpt>
      <trkpt lat="47.18693" lon="5.8876">
        <ele>267.900764</ele>
        <time>2021-08-31T18:46:27.829Z</time>
      </trkpt>
      <trkpt lat="47.18641" lon="5.88786">
        <ele>269.313224</ele>
        <time>2021-08-31T18:46:50.525Z</time>
      </trkpt>
      <trkpt lat="47.18559" lon="5.8884">
        <ele>271.617361</ele>
        <time>2021-08-31T18:47:18.893Z</time>
      </trkpt>
      <trkpt lat="47.18499" lon="5.88868">
        <ele>270.63037</ele>
        <time>2021-08-31T18:47:28.730Z</time>
      </trkpt>
      <trkpt lat="47.18406" lon="5.88868">
        <ele>267.73976</ele>
        <time>2021-08-31T18:47:41.439Z</time>
      </trkpt>
      <trkpt lat="47.18245" lon="5.88824">
        <ele>264.593128</ele>
        <time>2021-08-31T18:48:04.472Z</time>
      </trkpt>
      <trkpt lat="47.18227" lon="5.88818">
        <ele>264.310169</ele>
        <time>2021-08-31T18:48:08.634Z</time>
      </trkpt>
      <trkpt lat="47.18207" lon="5.88812">
        <ele>263.984821</ele>
        <time>2021-08-31T18:48:14.429Z</time>
      </trkpt>
      <trkpt lat="47.18206" lon="5.88816">
        <ele>263.94299</ele>
        <time>2021-08-31T18:48:15.591Z</time>
      </trkpt>
      <trkpt lat="47.18212" lon="5.88806">
        <ele>263.803448</ele>
        <time>2021-08-31T18:48:19.471Z</time>
      </trkpt>
      <trkpt lat="47.18253" lon="5.88777">
        <ele>265.466983</ele>
        <time>2021-08-31T18:48:38.940Z</time>
      </trkpt>
      <trkpt lat="47.18281" lon="5.88766">
        <ele>266.748799</ele>
        <time>2021-08-31T18:48:51.344Z</time>
      </trkpt>
      <trkpt lat="47.183" lon="5.88752">
        <ele>267.688655</ele>
        <time>2021-08-31T18:49:00.438Z</time>
      </trkpt>
      <trkpt lat="47.18365" lon="5.88684">
        <ele>271.216218</ele>
        <time>2021-08-31T18:49:34.589Z</time>
      </trkpt>
      <trkpt lat="47.1837" lon="5.88675">
        <ele>271.565649</ele>
        <time>2021-08-31T18:49:37.972Z</time>
      </trkpt>
      <trkpt lat="47.18366" lon="5.88667">
        <ele>271.835496</ele>
        <time>2021-08-31T18:49:40.862Z</time>
      </trkpt>
      <trkpt lat="47.18348" lon="5.88639">
        <ele>272.82387</ele>
        <time>2021-08-31T18:49:52.075Z</time>
      </trkpt>
      <trkpt lat="47.18308" lon="5.88617">
        <ele>274.43516</ele>
        <time>2021-08-31T18:50:10.353Z</time>
      </trkpt>
      <trkpt lat="47.18269" lon="5.88586">
        <ele>276.10773</ele>
        <time>2021-08-31T18:50:29.320Z</time>
      </trkpt>
      <trkpt lat="47.18251" lon="5.8855">
        <ele>277.253868</ele>
        <time>2021-08-31T18:50:42.313Z</time>
      </trkpt>
      <trkpt lat="47.18216" lon="5.88498">
        <ele>279.170096</ele>
        <time>2021-08-31T18:51:03.695Z</time>
      </trkpt>
      <trkpt lat="47.18181" lon="5.88445">
        <ele>281.139502</ele>
        <time>2021-08-31T18:51:25.081Z</time>
      </trkpt>
      <trkpt lat="47.18129" lon="5.88381">
        <ele>283.825898</ele>
        <time>2021-08-31T18:51:54.264Z</time>
      </trkpt>
      <trkpt lat="47.18076" lon="5.88317">
        <ele>286.675266</ele>
        <time>2021-08-31T18:52:23.446Z</time>
      </trkpt>
      <trkpt lat="47.18025" lon="5.88242">
        <ele>289.993869</ele>
        <time>2021-08-31T18:52:54.316Z</time>
      </trkpt>
      <trkpt lat="47.1797" lon="5.88181">
        <ele>293.163757</ele>
        <time>2021-08-31T18:53:23.799Z</time>
      </trkpt>
      <trkpt lat="47.17918" lon="5.88139">
        <ele>294.736735</ele>
        <time>2021-08-31T18:53:49.187Z</time>
      </trkpt>
      <trkpt lat="47.17898" lon="5.88111">
        <ele>295.298317</ele>
        <time>2021-08-31T18:54:01.000Z</time>
      </trkpt>
      <trkpt lat="47.17887" lon="5.88109">
        <ele>295.523772</ele>
        <time>2021-08-31T18:54:05.743Z</time>
      </trkpt>
      <trkpt lat="47.17867" lon="5.88123">
        <ele>295.974297</ele>
        <time>2021-08-31T18:54:15.217Z</time>
      </trkpt>
      <trkpt lat="47.17857" lon="5.88101">
        <ele>296.34022</ele>
        <time>2021-08-31T18:54:22.911Z</time>
      </trkpt>
      <trkpt lat="47.17827" lon="5.88067">
        <ele>297.110526</ele>
        <time>2021-08-31T18:54:39.107Z</time>
      </trkpt>
      <trkpt lat="47.17805" lon="5.8806">
        <ele>297.373073</ele>
        <time>2021-08-31T18:54:48.734Z</time>
      </trkpt>
      <trkpt lat="47.17793" lon="5.88041">
        <ele>296.949139</ele>
        <time>2021-08-31T18:54:56.273Z</time>
      </trkpt>
      <trkpt lat="47.17741" lon="5.88008">
        <ele>295.587307</ele>
        <time>2021-08-31T18:55:20.502Z</time>
      </trkpt>
      <trkpt lat="47.17741" lon="5.8801">
        <ele>295.557902</ele>
        <time>2021-08-31T18:55:21.025Z</time>
      </trkpt>
      <trkpt lat="47.17719" lon="5.87997">
        <ele>294.998687</ele>
        <time>2021-08-31T18:55:27.055Z</time>
      </trkpt>
      <trkpt lat="47.17692" lon="5.87968">
        <ele>294.196592</ele>
        <time>2021-08-31T18:55:35.658Z</time>
      </trkpt>
      <trkpt lat="47.17648" lon="5.87945">
        <ele>293.071094</ele>
        <time>2021-08-31T18:55:48.179Z</time>
      </trkpt>
      <trkpt lat="47.17591" lon="5.87921">
        <ele>291.674479</ele>
        <time>2021-08-31T18:56:03.499Z</time>
      </trkpt>
      <trkpt lat="47.1759" lon="5.87913">
        <ele>291.541724</ele>
        <time>2021-08-31T18:56:06.049Z</time>
      </trkpt>
      <trkpt lat="47.1758" lon="5.87847">
        <ele>290.456537</ele>
        <time>2021-08-31T18:56:15.896Z</time>
      </trkpt>
      <trkpt lat="47.17575" lon="5.87785">
        <ele>289.464269</ele>
        <time>2021-08-31T18:56:24.732Z</time>
      </trkpt>
      <trkpt lat="47.1757" lon="5.87666">
        <ele>285.953</ele>
        <time>2021-08-31T18:56:41.571Z</time>
      </trkpt>
      <trkpt lat="47.17561" lon="5.87663">
        <ele>285.460522</ele>
        <time>2021-08-31T18:56:43.750Z</time>
      </trkpt>
      <trkpt lat="47.17507" lon="5.87641">
        <ele>282.574239</ele>
        <time>2021-08-31T18:56:57.438Z</time>
      </trkpt>
      <trkpt lat="47.17468" lon="5.87643">
        <ele>280.601798</ele>
        <time>2021-08-31T18:57:06.250Z</time>
      </trkpt>
      <trkpt lat="47.17453" lon="5.87622">
        <ele>279.45407</ele>
        <time>2021-08-31T18:57:10.682Z</time>
      </trkpt>
      <trkpt lat="47.17418" lon="5.87613">
        <ele>276.350273</ele>
        <time>2021-08-31T18:57:18.564Z</time>
      </trkpt>
      <trkpt lat="47.17395" lon="5.87597">
        <ele>274.146847</ele>
        <time>2021-08-31T18:57:24.038Z</time>
      </trkpt>
      <trkpt lat="47.17392" lon="5.87574">
        <ele>272.759032</ele>
        <time>2021-08-31T18:57:27.568Z</time>
      </trkpt>
      <trkpt lat="47.17381" lon="5.87566">
        <ele>271.700014</ele>
        <time>2021-08-31T18:57:30.157Z</time>
      </trkpt>
      <trkpt lat="47.17344" lon="5.87563">
        <ele>268.495265</ele>
        <time>2021-08-31T18:57:38.245Z</time>
      </trkpt>
      <trkpt lat="47.17328" lon="5.87578">
        <ele>266.848646</ele>
        <time>2021-08-31T18:57:42.570Z</time>
      </trkpt>
      <trkpt lat="47.1729" lon="5.87582">
        <ele>263.863471</ele>
        <time>2021-08-31T18:57:50.885Z</time>
      </trkpt>
      <trkpt lat="47.1728" lon="5.87586">
        <ele>263.309955</ele>
        <time>2021-08-31T18:57:53.190Z</time>
      </trkpt>
      <trkpt lat="47.1728" lon="5.87466">
        <ele>259.14698</ele>
        <time>2021-08-31T18:58:12.245Z</time>
      </trkpt>
      <trkpt lat="47.17303" lon="5.87258">
        <ele>254.308533</ele>
        <time>2021-08-31T18:58:49.521Z</time>
      </trkpt>
      <trkpt lat="47.17293" lon="5.8721">
        <ele>253.919879</ele>
        <time>2021-08-31T18:58:59.476Z</time>
      </trkpt>
      <trkpt lat="47.17279" lon="5.87194">
        <ele>253.71575</ele>
        <time>2021-08-31T18:59:04.874Z</time>
      </trkpt>
      <trkpt lat="47.17232" lon="5.87172">
        <ele>253.150399</ele>
        <time>2021-08-31T18:59:20.342Z</time>
      </trkpt>
      <trkpt lat="47.17219" lon="5.87155">
        <ele>252.979745</ele>
        <time>2021-08-31T18:59:26.345Z</time>
      </trkpt>
      <trkpt lat="47.17176" lon="5.87093">
        <ele>254.130236</ele>
        <time>2021-08-31T18:59:48.294Z</time>
      </trkpt>
      <trkpt lat="47.17099" lon="5.86955">
        <ele>256.504605</ele>
        <time>2021-08-31T19:00:40.855Z</time>
      </trkpt>
      <trkpt lat="47.17022" lon="5.86838">
        <ele>261.270135</ele>
        <time>2021-08-31T19:01:37.982Z</time>
      </trkpt>
      <trkpt lat="47.16952" lon="5.8672">
        <ele>266.333854</ele>
        <time>2021-08-31T19:02:40.591Z</time>
      </trkpt>
      <trkpt lat="47.16903" lon="5.86664">
        <ele>269.718659</ele>
        <time>2021-08-31T19:03:17.621Z</time>
      </trkpt>
      <trkpt lat="47.16903" lon="5.86642">
        <ele>270.556425</ele>
        <time>2021-08-31T19:03:28.014Z</time>
      </trkpt>
      <trkpt lat="47.16899" lon="5.86692">
        <ele>272.417593</ele>
        <time>2021-08-31T19:03:44.490Z</time>
      </trkpt>
      <trkpt lat="47.16715" lon="5.87056">
        <ele>284.768773</ele>
        <time>2021-08-31T19:06:33.923Z</time>
      </trkpt>
      <trkpt lat="47.16583" lon="5.87172">
        <ele>285.769324</ele>
        <time>2021-08-31T19:07:20.438Z</time>
      </trkpt>
      <trkpt lat="47.16571" lon="5.87183">
        <ele>285.605691</ele>
        <time>2021-08-31T19:07:24.258Z</time>
      </trkpt>
      <trkpt lat="47.16432" lon="5.87305">
        <ele>284.342021</ele>
        <time>2021-08-31T19:08:10.442Z</time>
      </trkpt>
      <trkpt lat="47.16389" lon="5.87345">
        <ele>284.170699</ele>
        <time>2021-08-31T19:08:27.994Z</time>
      </trkpt>
      <trkpt lat="47.16207" lon="5.87501">
        <ele>282.972146</ele>
        <time>2021-08-31T19:09:36.393Z</time>
      </trkpt>
      <trkpt lat="47.16105" lon="5.8759">
        <ele>280.04682</ele>
        <time>2021-08-31T19:10:06.404Z</time>
      </trkpt>
      <trkpt lat="47.16053" lon="5.87657">
        <ele>277.950465</ele>
        <time>2021-08-31T19:10:23.898Z</time>
      </trkpt>
      <trkpt lat="47.16034" lon="5.8768">
        <ele>277.384705</ele>
        <time>2021-08-31T19:10:30.204Z</time>
      </trkpt>
      <trkpt lat="47.16039" lon="5.87713">
        <ele>277.510237</ele>
        <time>2021-08-31T19:10:34.105Z</time>
      </trkpt>
      <trkpt lat="47.16076" lon="5.87808">
        <ele>277.921711</ele>
        <time>2021-08-31T19:10:50.221Z</time>
      </trkpt>
      <trkpt lat="47.16126" lon="5.87888">
        <ele>278.327509</ele>
        <time>2021-08-31T19:11:13.608Z</time>
      </trkpt>
      <trkpt lat="47.16152" lon="5.8793">
        <ele>277.998138</ele>
        <time>2021-08-31T19:11:26.391Z</time>
      </trkpt>
      <trkpt lat="47.16284" lon="5.88096">
        <ele>274.642923</ele>
        <time>2021-08-31T19:11:53.975Z</time>
      </trkpt>
      <trkpt lat="47.16277" lon="5.88101">
        <ele>274.118921</ele>
        <time>2021-08-31T19:11:55.686Z</time>
      </trkpt>
      <trkpt lat="47.16265" lon="5.8813">
        <ele>272.644791</ele>
        <time>2021-08-31T19:12:01.261Z</time>
      </trkpt>
      <trkpt lat="47.16256" lon="5.88149">
        <ele>271.635643</ele>
        <time>2021-08-31T19:12:04.587Z</time>
      </trkpt>
      <trkpt lat="47.16248" lon="5.88162">
        <ele>270.855619</ele>
        <time>2021-08-31T19:12:07.454Z</time>
      </trkpt>
      <trkpt lat="47.16241" lon="5.8817">
        <ele>270.26315</ele>
        <time>2021-08-31T19:12:09.579Z</time>
      </trkpt>
      <trkpt lat="47.16241" lon="5.88186">
        <ele>269.561972</ele>
        <time>2021-08-31T19:12:11.797Z</time>
      </trkpt>
      <trkpt lat="47.1625" lon="5.88223">
        <ele>267.804526</ele>
        <time>2021-08-31T19:12:18.076Z</time>
      </trkpt>
      <trkpt lat="47.16325" lon="5.88344">
        <ele>262.42296</ele>
        <time>2021-08-31T19:12:42.593Z</time>
      </trkpt>
      <trkpt lat="47.16389" lon="5.88472">
        <ele>258.396166</ele>
        <time>2021-08-31T19:13:12.711Z</time>
      </trkpt>
      <trkpt lat="47.16419" lon="5.88514">
        <ele>258.867854</ele>
        <time>2021-08-31T19:13:29.282Z</time>
      </trkpt>
      <trkpt lat="47.16442" lon="5.88562">
        <ele>259.640138</ele>
        <time>2021-08-31T19:13:48.106Z</time>
      </trkpt>
      <trkpt lat="47.1646" lon="5.88615">
        <ele>260.419063</ele>
        <time>2021-08-31T19:14:07.492Z</time>
      </trkpt>
      <trkpt lat="47.16463" lon="5.88637">
        <ele>260.711292</ele>
        <time>2021-08-31T19:14:13.845Z</time>
      </trkpt>
      <trkpt lat="47.16473" lon="5.88648">
        <ele>260.950607</ele>
        <time>2021-08-31T19:14:19.083Z</time>
      </trkpt>
      <trkpt lat="47.16481" lon="5.88653">
        <ele>261.123399</ele>
        <time>2021-08-31T19:14:23.845Z</time>
      </trkpt>
      <trkpt lat="47.16513" lon="5.88697">
        <ele>261.584645</ele>
        <time>2021-08-31T19:14:41.688Z</time>
      </trkpt>
      <trkpt lat="47.16547" lon="5.88752">
        <ele>261.396446</ele>
        <time>2021-08-31T19:14:59.127Z</time>
      </trkpt>
      <trkpt lat="47.16589" lon="5.8882">
        <ele>261.164429</ele>
        <time>2021-08-31T19:15:11.125Z</time>
      </trkpt>
      <trkpt lat="47.16628" lon="5.88878">
        <ele>260.856569</ele>
        <time>2021-08-31T19:15:19.986Z</time>
      </trkpt>
      <trkpt lat="47.16645" lon="5.88903">
        <ele>260.262767</ele>
        <time>2021-08-31T19:15:23.703Z</time>
      </trkpt>
      <trkpt lat="47.16716" lon="5.89014">
        <ele>257.69667</ele>
        <time>2021-08-31T19:15:40.406Z</time>
      </trkpt>
      <trkpt lat="47.1672" lon="5.8902">
        <ele>257.561911</ele>
        <time>2021-08-31T19:15:41.231Z</time>
      </trkpt>
      <trkpt lat="47.16724" lon="5.89026">
        <ele>257.425057</ele>
        <time>2021-08-31T19:15:42.019Z</time>
      </trkpt>
      <trkpt lat="47.1673" lon="5.89044">
        <ele>257.083751</ele>
        <time>2021-08-31T19:15:44.512Z</time>
      </trkpt>
      <trkpt lat="47.1673" lon="5.89049">
        <ele>257.004516</ele>
        <time>2021-08-31T19:15:44.984Z</time>
      </trkpt>
      <trkpt lat="47.16757" lon="5.89065">
        <ele>256.170182</ele>
        <time>2021-08-31T19:15:49.528Z</time>
      </trkpt>
      <trkpt lat="47.1683" lon="5.89111">
        <ele>253.266128</ele>
        <time>2021-08-31T19:16:01.947Z</time>
      </trkpt>
      <trkpt lat="47.16834" lon="5.89112">
        <ele>253.128051</ele>
        <time>2021-08-31T19:16:02.512Z</time>
      </trkpt>
      <trkpt lat="47.16836" lon="5.89119">
        <ele>252.934791</ele>
        <time>2021-08-31T19:16:03.307Z</time>
      </trkpt>
      <trkpt lat="47.16839" lon="5.89126">
        <ele>252.730673</ele>
        <time>2021-08-31T19:16:04.097Z</time>
      </trkpt>
      <trkpt lat="47.16841" lon="5.8913">
        <ele>252.602155</ele>
        <time>2021-08-31T19:16:04.524Z</time>
      </trkpt>
      <trkpt lat="47.16845" lon="5.89153">
        <ele>252.023251</ele>
        <time>2021-08-31T19:16:06.718Z</time>
      </trkpt>
      <trkpt lat="47.16841" lon="5.89179">
        <ele>251.3423</ele>
        <time>2021-08-31T19:16:09.448Z</time>
      </trkpt>
      <trkpt lat="47.16837" lon="5.89188">
        <ele>251.087218</ele>
        <time>2021-08-31T19:16:10.379Z</time>
      </trkpt>
      <trkpt lat="47.16834" lon="5.89193">
        <ele>250.928816</ele>
        <time>2021-08-31T19:16:10.940Z</time>
      </trkpt>
      <trkpt lat="47.1679" lon="5.89207">
        <ele>248.795774</ele>
        <time>2021-08-31T19:16:17.169Z</time>
      </trkpt>
      <trkpt lat="47.16769" lon="5.89211">
        <ele>247.513781</ele>
        <time>2021-08-31T19:16:19.920Z</time>
      </trkpt>
      <trkpt lat="47.16766" lon="5.89212">
        <ele>247.328035</ele>
        <time>2021-08-31T19:16:20.283Z</time>
      </trkpt>
      <trkpt lat="47.16757" lon="5.89214">
        <ele>246.727111</ele>
        <time>2021-08-31T19:16:21.582Z</time>
      </trkpt>
      <trkpt lat="47.16758" lon="5.89219">
        <ele>246.494805</ele>
        <time>2021-08-31T19:16:22.051Z</time>
      </trkpt>
      <trkpt lat="47.16758" lon="5.89219">
        <ele>253.1</ele>
      </trkpt>
      <trkpt lat="47.16757" lon="5.89214">
        <ele>253.3</ele>
      </trkpt>
      <trkpt lat="47.16744" lon="5.89215">
        <ele>252.5</ele>
      </trkpt>
      <trkpt lat="47.1674" lon="5.89215">
        <ele>252</ele>
      </trkpt>
      <trkpt lat="47.16735" lon="5.89216">
        <ele>251.4</ele>
      </trkpt>
      <trkpt lat="47.16718" lon="5.89213">
        <ele>249.8</ele>
      </trkpt>
      <trkpt lat="47.16692" lon="5.892">
        <ele>247.7</ele>
      </trkpt>
      <trkpt lat="47.16608" lon="5.8913">
        <ele>243.1</ele>
      </trkpt>
      <trkpt lat="47.16598" lon="5.8912">
        <ele>242.4</ele>
      </trkpt>
      <trkpt lat="47.16585" lon="5.89115">
        <ele>241.1</ele>
      </trkpt>
      <trkpt lat="47.16582" lon="5.89112">
        <ele>240.9</ele>
      </trkpt>
      <trkpt lat="47.16574" lon="5.89106">
        <ele>240.4</ele>
      </trkpt>
      <trkpt lat="47.16498" lon="5.89042">
        <ele>233.9</ele>
      </trkpt>
      <trkpt lat="47.16494" lon="5.89036">
        <ele>233.7</ele>
      </trkpt>
      <trkpt lat="47.16499" lon="5.89033">
        <ele>233.9</ele>
      </trkpt>
      <trkpt lat="47.16494" lon="5.89029">
        <ele>233.7</ele>
      </trkpt>
      <trkpt lat="47.16474" lon="5.89002">
        <ele>232.4</ele>
      </trkpt>
      <trkpt lat="47.16451" lon="5.88964">
        <ele>232.7</ele>
      </trkpt>
      <trkpt lat="47.16446" lon="5.88953">
        <ele>232.7</ele>
      </trkpt>
      <trkpt lat="47.16441" lon="5.88938">
        <ele>232.7</ele>
      </trkpt>
      <trkpt lat="47.16435" lon="5.88921">
        <ele>232.5</ele>
      </trkpt>
      <trkpt lat="47.16427" lon="5.88897">
        <ele>232.8</ele>
      </trkpt>
      <trkpt lat="47.16424" lon="5.88884">
        <ele>233</ele>
      </trkpt>
      <trkpt lat="47.16423" lon="5.88881">
        <ele>233</ele>
      </trkpt>
      <trkpt lat="47.164" lon="5.88801">
        <ele>236.9</ele>
      </trkpt>
      <trkpt lat="47.16385" lon="5.8876">
        <ele>239</ele>
      </trkpt>
      <trkpt lat="47.16383" lon="5.88757">
        <ele>238.8</ele>
      </trkpt>
      <trkpt lat="47.16376" lon="5.88718">
        <ele>241.4</ele>
      </trkpt>
      <trkpt lat="47.16383" lon="5.88757">
        <ele>238.8</ele>
      </trkpt>
      <trkpt lat="47.16379" lon="5.88754">
        <ele>238.1</ele>
      </trkpt>
      <trkpt lat="47.16371" lon="5.88745">
        <ele>237</ele>
      </trkpt>
      <trkpt lat="47.16367" lon="5.88742">
        <ele>236.3</ele>
      </trkpt>
      <trkpt lat="47.16357" lon="5.88729">
        <ele>234.9</ele>
      </trkpt>
      <trkpt lat="47.16355" lon="5.88723">
        <ele>234.8</ele>
      </trkpt>
      <trkpt lat="47.16353" lon="5.88717">
        <ele>234.8</ele>
      </trkpt>
      <trkpt lat="47.16347" lon="5.88658">
        <ele>237.7</ele>
      </trkpt>
      <trkpt lat="47.16347" lon="5.88657">
        <ele>237.8</ele>
      </trkpt>
      <trkpt lat="47.16304" lon="5.88571">
        <ele>225.414275</ele>
        <time>2021-08-31T19:25:43.530Z</time>
      </trkpt>
      <trkpt lat="47.16285" lon="5.88572">
        <ele>225.599173</ele>
        <time>2021-08-31T19:25:48.076Z</time>
      </trkpt>
      <trkpt lat="47.16253" lon="5.88591">
        <ele>225.949837</ele>
        <time>2021-08-31T19:25:56.008Z</time>
      </trkpt>
      <trkpt lat="47.16238" lon="5.8859">
        <ele>226.098712</ele>
        <time>2021-08-31T19:25:58.977Z</time>
      </trkpt>
      <trkpt lat="47.16153" lon="5.88636">
        <ele>226.996878</ele>
        <time>2021-08-31T19:26:21.073Z</time>
      </trkpt>
      <trkpt lat="47.16064" lon="5.88686">
        <ele>231.08002</ele>
        <time>2021-08-31T19:26:51.989Z</time>
      </trkpt>
      <trkpt lat="47.15985" lon="5.88731">
        <ele>235.224377</ele>
        <time>2021-08-31T19:27:34.291Z</time>
      </trkpt>
      <trkpt lat="47.15958" lon="5.88778">
        <ele>238.701223</ele>
        <time>2021-08-31T19:28:00.595Z</time>
      </trkpt>
      <trkpt lat="47.15948" lon="5.88797">
        <ele>240.368542</ele>
        <time>2021-08-31T19:28:10.437Z</time>
      </trkpt>
      <trkpt lat="47.15922" lon="5.88843">
        <ele>244.566234</ele>
        <time>2021-08-31T19:28:37.685Z</time>
      </trkpt>
      <trkpt lat="47.15912" lon="5.88852">
        <ele>245.792089</ele>
        <time>2021-08-31T19:28:48.818Z</time>
      </trkpt>
      <trkpt lat="47.15876" lon="5.88815">
        <ele>250.328552</ele>
        <time>2021-08-31T19:29:21.656Z</time>
      </trkpt>
      <trkpt lat="47.15862" lon="5.88811">
        <ele>251.76996</ele>
        <time>2021-08-31T19:29:31.227Z</time>
      </trkpt>
      <trkpt lat="47.15856" lon="5.88817">
        <ele>252.567731</ele>
        <time>2021-08-31T19:29:38.049Z</time>
      </trkpt>
      <trkpt lat="47.15846" lon="5.88819">
        <ele>253.619178</ele>
        <time>2021-08-31T19:29:45.204Z</time>
      </trkpt>
      <trkpt lat="47.1583" lon="5.88816">
        <ele>255.244836</ele>
        <time>2021-08-31T19:29:56.561Z</time>
      </trkpt>
      <trkpt lat="47.15763" lon="5.88776">
        <ele>262.096595</ele>
        <time>2021-08-31T19:30:46.646Z</time>
      </trkpt>
      <trkpt lat="47.15741" lon="5.88797">
        <ele>264.621145</ele>
        <time>2021-08-31T19:31:05.088Z</time>
      </trkpt>
      <trkpt lat="47.15737" lon="5.88813">
        <ele>265.708728</ele>
        <time>2021-08-31T19:31:13.028Z</time>
      </trkpt>
      <trkpt lat="47.15741" lon="5.88821">
        <ele>266.34824</ele>
        <time>2021-08-31T19:31:17.696Z</time>
      </trkpt>
      <trkpt lat="47.15744" lon="5.88824">
        <ele>266.733821</ele>
        <time>2021-08-31T19:31:20.516Z</time>
      </trkpt>
      <trkpt lat="47.15767" lon="5.88854">
        <ele>269.682796</ele>
        <time>2021-08-31T19:31:42.032Z</time>
      </trkpt>
      <trkpt lat="47.15809" lon="5.88889">
        <ele>272.936494</ele>
        <time>2021-08-31T19:32:15.163Z</time>
      </trkpt>
      <trkpt lat="47.15819" lon="5.88901">
        <ele>273.542993</ele>
        <time>2021-08-31T19:32:24.489Z</time>
      </trkpt>
      <trkpt lat="47.15829" lon="5.88922">
        <ele>274.329644</ele>
        <time>2021-08-31T19:32:36.583Z</time>
      </trkpt>
      <trkpt lat="47.15865" lon="5.88945">
        <ele>276.092071</ele>
        <time>2021-08-31T19:33:03.659Z</time>
      </trkpt>
      <trkpt lat="47.15907" lon="5.88986">
        <ele>278.381293</ele>
        <time>2021-08-31T19:33:38.795Z</time>
      </trkpt>
      <trkpt lat="47.15983" lon="5.8906">
        <ele>281.882781</ele>
        <time>2021-08-31T19:34:42.208Z</time>
      </trkpt>
      <trkpt lat="47.15997" lon="5.89058">
        <ele>282.386909</ele>
        <time>2021-08-31T19:34:52.410Z</time>
      </trkpt>
      <trkpt lat="47.16002" lon="5.89058">
        <ele>282.538497</ele>
        <time>2021-08-31T19:34:55.474Z</time>
      </trkpt>
      <trkpt lat="47.16005" lon="5.89061">
        <ele>282.69251</ele>
        <time>2021-08-31T19:34:58.234Z</time>
      </trkpt>
      <trkpt lat="47.161" lon="5.89223">
        <ele>288.538213</ele>
        <time>2021-08-31T19:36:03.460Z</time>
      </trkpt>
      <trkpt lat="47.16154" lon="5.89377">
        <ele>294.800007</ele>
        <time>2021-08-31T19:37:08.001Z</time>
      </trkpt>
      <trkpt lat="47.16165" lon="5.89425">
        <ele>296.409887</ele>
        <time>2021-08-31T19:37:27.916Z</time>
      </trkpt>
      <trkpt lat="47.1618" lon="5.89655">
        <ele>302.99248</ele>
        <time>2021-08-31T19:38:46.072Z</time>
      </trkpt>
      <trkpt lat="47.16177" lon="5.89681">
        <ele>302.625004</ele>
        <time>2021-08-31T19:38:50.478Z</time>
      </trkpt>
      <trkpt lat="47.16165" lon="5.89729">
        <ele>301.158844</ele>
        <time>2021-08-31T19:38:59.878Z</time>
      </trkpt>
      <trkpt lat="47.16155" lon="5.89747">
        <ele>300.528002</ele>
        <time>2021-08-31T19:39:03.533Z</time>
      </trkpt>
      <trkpt lat="47.16149" lon="5.89756">
        <ele>300.147428</ele>
        <time>2021-08-31T19:39:06.062Z</time>
      </trkpt>
      <trkpt lat="47.16148" lon="5.89846">
        <ele>297.609208</ele>
        <time>2021-08-31T19:39:16.960Z</time>
      </trkpt>
      <trkpt lat="47.16123" lon="5.89886">
        <ele>296.083101</ele>
        <time>2021-08-31T19:39:23.329Z</time>
      </trkpt>
      <trkpt lat="47.16038" lon="5.89939">
        <ele>291.601404</ele>
        <time>2021-08-31T19:39:39.043Z</time>
      </trkpt>
      <trkpt lat="47.15996" lon="5.89958">
        <ele>289.439272</ele>
        <time>2021-08-31T19:39:45.332Z</time>
      </trkpt>
      <trkpt lat="47.15981" lon="5.89983">
        <ele>288.302772</ele>
        <time>2021-08-31T19:39:48.937Z</time>
      </trkpt>
      <trkpt lat="47.15947" lon="5.90074">
        <ele>287.417699</ele>
        <time>2021-08-31T19:40:02.661Z</time>
      </trkpt>
      <trkpt lat="47.15946" lon="5.90076">
        <ele>287.445193</ele>
        <time>2021-08-31T19:40:03.123Z</time>
      </trkpt>
      <trkpt lat="47.15946" lon="5.90076">
        <ele>283.2</ele>
      </trkpt>
      <trkpt lat="47.15945" lon="5.90091">
        <ele>283.3</ele>
      </trkpt>
      <trkpt lat="47.15945" lon="5.90096">
        <ele>283.5</ele>
      </trkpt>
      <trkpt lat="47.1593" lon="5.90099">
        <ele>283.5</ele>
      </trkpt>
      <trkpt lat="47.15916" lon="5.90107">
        <ele>283.6</ele>
      </trkpt>
      <trkpt lat="47.15902" lon="5.90114">
        <ele>283.5</ele>
      </trkpt>
      <trkpt lat="47.15873" lon="5.90131">
        <ele>283.3</ele>
      </trkpt>
      <trkpt lat="47.15861" lon="5.90138">
        <ele>283.2</ele>
      </trkpt>
      <trkpt lat="47.15855" lon="5.90141">
        <ele>283.1</ele>
      </trkpt>
      <trkpt lat="47.15848" lon="5.90145">
        <ele>283</ele>
      </trkpt>
      <trkpt lat="47.15798" lon="5.90173">
        <ele>281.3</ele>
      </trkpt>
      <trkpt lat="47.15784" lon="5.90179">
        <ele>280.4</ele>
      </trkpt>
      <trkpt lat="47.15776" lon="5.90182">
        <ele>279.9</ele>
      </trkpt>
      <trkpt lat="47.15763" lon="5.90185">
        <ele>279.1</ele>
      </trkpt>
      <trkpt lat="47.15734" lon="5.90189">
        <ele>277</ele>
      </trkpt>
      <trkpt lat="47.1569" lon="5.90187">
        <ele>273.6</ele>
      </trkpt>
      <trkpt lat="47.15686" lon="5.90206">
        <ele>272.9</ele>
      </trkpt>
      <trkpt lat="47.1568" lon="5.90278">
        <ele>272.7</ele>
      </trkpt>
      <trkpt lat="47.15678" lon="5.90295">
        <ele>273.2</ele>
      </trkpt>
      <trkpt lat="47.1567" lon="5.90345">
        <ele>274.2</ele>
      </trkpt>
      <trkpt lat="47.15666" lon="5.90385">
        <ele>274.6</ele>
      </trkpt>
      <trkpt lat="47.15662" lon="5.90426">
        <ele>274.5</ele>
      </trkpt>
      <trkpt lat="47.15648" lon="5.90477">
        <ele>272.6</ele>
      </trkpt>
      <trkpt lat="47.15622" lon="5.90917">
        <ele>288.2</ele>
      </trkpt>
      <trkpt lat="47.15606" lon="5.90989">
        <ele>291.5</ele>
      </trkpt>
      <trkpt lat="47.15604" lon="5.91014">
        <ele>293.4</ele>
      </trkpt>
      <trkpt lat="47.15598" lon="5.91063">
        <ele>297.3</ele>
      </trkpt>
      <trkpt lat="47.15585" lon="5.91186">
        <ele>304</ele>
      </trkpt>
      <trkpt lat="47.15558" lon="5.91269">
        <ele>307.2</ele>
      </trkpt>
      <trkpt lat="47.15546" lon="5.91326">
        <ele>310.6</ele>
      </trkpt>
      <trkpt lat="47.15534" lon="5.9141">
        <ele>310.9</ele>
      </trkpt>
      <trkpt lat="47.15529" lon="5.91495">
        <ele>312.3</ele>
      </trkpt>
      <trkpt lat="47.15533" lon="5.91549">
        <ele>314.4</ele>
      </trkpt>
      <trkpt lat="47.15479" lon="5.9159">
        <ele>317.6</ele>
      </trkpt>
      <trkpt lat="47.15464" lon="5.916">
        <ele>319.2</ele>
      </trkpt>
      <trkpt lat="47.15436" lon="5.91612">
        <ele>322.4</ele>
      </trkpt>
      <trkpt lat="47.153" lon="5.91612">
        <ele>334.3</ele>
      </trkpt>
      <trkpt lat="47.1524" lon="5.91612">
        <ele>339.8</ele>
      </trkpt>
      <trkpt lat="47.15059" lon="5.91612">
        <ele>355.9</ele>
      </trkpt>
      <trkpt lat="47.15024" lon="5.91607">
        <ele>361.2</ele>
      </trkpt>
      <trkpt lat="47.14984" lon="5.91591">
        <ele>366.1</ele>
      </trkpt>
      <trkpt lat="47.14943" lon="5.91566">
        <ele>370</ele>
      </trkpt>
      <trkpt lat="47.14917" lon="5.91544">
        <ele>370.5</ele>
      </trkpt>
      <trkpt lat="47.14879" lon="5.91503">
        <ele>371</ele>
      </trkpt>
      <trkpt lat="47.14851" lon="5.91465">
        <ele>372.6</ele>
      </trkpt>
      <trkpt lat="47.14822" lon="5.91414">
        <ele>372.8</ele>
      </trkpt>
      <trkpt lat="47.14807" lon="5.91396">
        <ele>372.7</ele>
      </trkpt>
      <trkpt lat="47.14737" lon="5.91323">
        <ele>372.6</ele>
      </trkpt>
      <trkpt lat="47.14643" lon="5.91208">
        <ele>367.7</ele>
      </trkpt>
      <trkpt lat="47.14585" lon="5.91138">
        <ele>362.5</ele>
      </trkpt>
      <trkpt lat="47.14483" lon="5.9101">
        <ele>363.5</ele>
      </trkpt>
      <trkpt lat="47.14455" lon="5.9098">
        <ele>362.7</ele>
      </trkpt>
      <trkpt lat="47.14444" lon="5.90974">
        <ele>363</ele>
      </trkpt>
      <trkpt lat="47.14436" lon="5.90972">
        <ele>363.4</ele>
      </trkpt>
      <trkpt lat="47.14419" lon="5.90972">
        <ele>364.8</ele>
      </trkpt>
      <trkpt lat="47.14409" lon="5.90977">
        <ele>365.3</ele>
      </trkpt>
      <trkpt lat="47.14403" lon="5.9097">
        <ele>364.7</ele>
      </trkpt>
      <trkpt lat="47.14399" lon="5.90963">
        <ele>364.3</ele>
      </trkpt>
      <trkpt lat="47.14403" lon="5.9097">
        <ele>364.7</ele>
      </trkpt>
      <trkpt lat="47.14409" lon="5.90977">
        <ele>365.3</ele>
      </trkpt>
      <trkpt lat="47.14389" lon="5.90993">
        <ele>365.9</ele>
      </trkpt>
      <trkpt lat="47.14342" lon="5.91047">
        <ele>370.1</ele>
      </trkpt>
      <trkpt lat="47.14328" lon="5.91061">
        <ele>371.7</ele>
      </trkpt>
      <trkpt lat="47.14301" lon="5.91082">
        <ele>374.6</ele>
      </trkpt>
      <trkpt lat="47.14287" lon="5.9109">
        <ele>376</ele>
      </trkpt>
      <trkpt lat="47.14274" lon="5.91093">
        <ele>376.7</ele>
      </trkpt>
      <trkpt lat="47.14246" lon="5.91086">
        <ele>376.8</ele>
      </trkpt>
      <trkpt lat="47.14186" lon="5.91062">
        <ele>380.1</ele>
      </trkpt>
      <trkpt lat="47.14156" lon="5.91047">
        <ele>381.9</ele>
      </trkpt>
      <trkpt lat="47.14117" lon="5.91034">
        <ele>386.6</ele>
      </trkpt>
      <trkpt lat="47.14097" lon="5.91029">
        <ele>389.2</ele>
      </trkpt>
      <trkpt lat="47.14044" lon="5.91015">
        <ele>394.9</ele>
      </trkpt>
      <trkpt lat="47.13992" lon="5.9101">
        <ele>400.3</ele>
      </trkpt>
      <trkpt lat="47.13973" lon="5.91003">
        <ele>400.5</ele>
      </trkpt>
      <trkpt lat="47.1396" lon="5.90995">
        <ele>400.1</ele>
      </trkpt>
      <trkpt lat="47.13928" lon="5.90963">
        <ele>397.4</ele>
      </trkpt>
      <trkpt lat="47.13915" lon="5.90957">
        <ele>397.3</ele>
      </trkpt>
      <trkpt lat="47.13888" lon="5.90951">
        <ele>396</ele>
      </trkpt>
      <trkpt lat="47.13813" lon="5.90941">
        <ele>395.6</ele>
      </trkpt>
      <trkpt lat="47.13773" lon="5.9093">
        <ele>397.6</ele>
      </trkpt>
      <trkpt lat="47.13717" lon="5.90896">
        <ele>399.4</ele>
      </trkpt>
      <trkpt lat="47.13709" lon="5.90891">
        <ele>399.8</ele>
      </trkpt>
      <trkpt lat="47.13646" lon="5.90859">
        <ele>402.3</ele>
      </trkpt>
      <trkpt lat="47.13582" lon="5.90824">
        <ele>405.2</ele>
      </trkpt>
      <trkpt lat="47.1357" lon="5.90814">
        <ele>405.5</ele>
      </trkpt>
      <trkpt lat="47.13557" lon="5.908">
        <ele>405.2</ele>
      </trkpt>
      <trkpt lat="47.13482" lon="5.90709">
        <ele>403.9</ele>
      </trkpt>
      <trkpt lat="47.13456" lon="5.90681">
        <ele>404.1</ele>
      </trkpt>
      <trkpt lat="47.13412" lon="5.90623">
        <ele>403.2</ele>
      </trkpt>
      <trkpt lat="47.13399" lon="5.90612">
        <ele>403</ele>
      </trkpt>
      <trkpt lat="47.13355" lon="5.90586">
        <ele>403.4</ele>
      </trkpt>
      <trkpt lat="47.1327" lon="5.90536">
        <ele>403.4</ele>
      </trkpt>
      <trkpt lat="47.13245" lon="5.90517">
        <ele>402</ele>
      </trkpt>
      <trkpt lat="47.13175" lon="5.90454">
        <ele>403.1</ele>
      </trkpt>
      <trkpt lat="47.13086" lon="5.9038">
        <ele>404.4</ele>
      </trkpt>
      <trkpt lat="47.13042" lon="5.90353">
        <ele>403.9</ele>
      </trkpt>
      <trkpt lat="47.13007" lon="5.90338">
        <ele>402.7</ele>
      </trkpt>
      <trkpt lat="47.12995" lon="5.90336">
        <ele>402.9</ele>
      </trkpt>
      <trkpt lat="47.12967" lon="5.90341">
        <ele>405.9</ele>
      </trkpt>
      <trkpt lat="47.12964" lon="5.90341">
        <ele>406.1</ele>
      </trkpt>
      <trkpt lat="47.12944" lon="5.90341">
        <ele>407.5</ele>
      </trkpt>
      <trkpt lat="47.13011" lon="5.90374">
        <ele>409.5</ele>
      </trkpt>
      <trkpt lat="47.1304" lon="5.90391">
        <ele>409.8</ele>
      </trkpt>
      <trkpt lat="47.13064" lon="5.90415">
        <ele>410.4</ele>
      </trkpt>
      <trkpt lat="47.13074" lon="5.90423">
        <ele>410.6</ele>
      </trkpt>
      <trkpt lat="47.1314" lon="5.90522">
        <ele>416.7</ele>
      </trkpt>
      <trkpt lat="47.13171" lon="5.90557">
        <ele>417.4</ele>
      </trkpt>
      <trkpt lat="47.13242" lon="5.90606">
        <ele>415.9</ele>
      </trkpt>
      <trkpt lat="47.13335" lon="5.90681">
        <ele>422.7</ele>
      </trkpt>
      <trkpt lat="47.13372" lon="5.90715">
        <ele>424.8</ele>
      </trkpt>
      <trkpt lat="47.13478" lon="5.90848">
        <ele>431.2</ele>
      </trkpt>
      <trkpt lat="47.13555" lon="5.90938">
        <ele>432.4</ele>
      </trkpt>
      <trkpt lat="47.13754" lon="5.91263">
        <ele>447.65469</ele>
        <time>2021-08-31T17:05:28.949Z</time>
      </trkpt>
      <trkpt lat="47.13774" lon="5.9129">
        <ele>446.800516</ele>
        <time>2021-08-31T17:05:18.992Z</time>
      </trkpt>
      <trkpt lat="47.13823" lon="5.91332">
        <ele>445.033039</ele>
        <time>2021-08-31T17:05:00.945Z</time>
      </trkpt>
      <trkpt lat="47.13831" lon="5.91339">
        <ele>444.957107</ele>
        <time>2021-08-31T17:04:58.537Z</time>
      </trkpt>
      <trkpt lat="47.13839" lon="5.9134">
        <ele>444.88561</ele>
        <time>2021-08-31T17:04:55.701Z</time>
      </trkpt>
      <trkpt lat="47.13864" lon="5.91319">
        <ele>444.641027</ele>
        <time>2021-08-31T17:04:46.955Z</time>
      </trkpt>
      <trkpt lat="47.13877" lon="5.91316">
        <ele>444.538551</ele>
        <time>2021-08-31T17:04:42.169Z</time>
      </trkpt>
      <trkpt lat="47.13941" lon="5.91369">
        <ele>443.923741</ele>
        <time>2021-08-31T17:04:17.181Z</time>
      </trkpt>
      <trkpt lat="47.13985" lon="5.91396">
        <ele>443.46175</ele>
        <time>2021-08-31T17:03:57.546Z</time>
      </trkpt>
      <trkpt lat="47.14014" lon="5.91423">
        <ele>442.244418</ele>
        <time>2021-08-31T17:03:40.985Z</time>
      </trkpt>
      <trkpt lat="47.14082" lon="5.91452">
        <ele>439.751962</ele>
        <time>2021-08-31T17:03:05.546Z</time>
      </trkpt>
      <trkpt lat="47.14131" lon="5.91499">
        <ele>437.682037</ele>
        <time>2021-08-31T17:02:33.735Z</time>
      </trkpt>
      <trkpt lat="47.14142" lon="5.91511">
        <ele>437.179235</ele>
        <time>2021-08-31T17:02:25.611Z</time>
      </trkpt>
      <trkpt lat="47.14225" lon="5.91531">
        <ele>434.65076</ele>
        <time>2021-08-31T17:01:46.473Z</time>
      </trkpt>
      <trkpt lat="47.14231" lon="5.91531">
        <ele>434.462845</ele>
        <time>2021-08-31T17:01:43.336Z</time>
      </trkpt>
      <trkpt lat="47.14245" lon="5.91544">
        <ele>433.976663</ele>
        <time>2021-08-31T17:01:35.703Z</time>
      </trkpt>
      <trkpt lat="47.14299" lon="5.91614">
        <ele>431.805113</ele>
        <time>2021-08-31T17:01:03.505Z</time>
      </trkpt>
      <trkpt lat="47.14349" lon="5.91655">
        <ele>430.323448</ele>
        <time>2021-08-31T17:00:38.655Z</time>
      </trkpt>
      <trkpt lat="47.14396" lon="5.91679">
        <ele>429.047696</ele>
        <time>2021-08-31T17:00:18.143Z</time>
      </trkpt>
      <trkpt lat="47.14437" lon="5.91687">
        <ele>427.98581</ele>
        <time>2021-08-31T16:59:59.756Z</time>
      </trkpt>
      <trkpt lat="47.1446" lon="5.91703">
        <ele>427.328314</ele>
        <time>2021-08-31T16:59:47.426Z</time>
      </trkpt>
      <trkpt lat="47.14551" lon="5.91735">
        <ele>423.038317</ele>
        <time>2021-08-31T16:59:00.580Z</time>
      </trkpt>
      <trkpt lat="47.14566" lon="5.91735">
        <ele>422.327788</ele>
        <time>2021-08-31T16:58:52.343Z</time>
      </trkpt>
      <trkpt lat="47.14648" lon="5.9175">
        <ele>418.245407</ele>
        <time>2021-08-31T16:58:02.628Z</time>
      </trkpt>
      <trkpt lat="47.14717" lon="5.91757">
        <ele>412.914282</ele>
        <time>2021-08-31T16:57:13.688Z</time>
      </trkpt>
      <trkpt lat="47.14754" lon="5.91746">
        <ele>410.054739</ele>
        <time>2021-08-31T16:56:47.489Z</time>
      </trkpt>
      <trkpt lat="47.14777" lon="5.91755">
        <ele>408.201601</ele>
        <time>2021-08-31T16:56:29.268Z</time>
      </trkpt>
      <trkpt lat="47.14861" lon="5.9177">
        <ele>401.743901</ele>
        <time>2021-08-31T16:55:27.942Z</time>
      </trkpt>
      <trkpt lat="47.14934" lon="5.91773">
        <ele>396.179973</ele>
        <time>2021-08-31T16:54:34.108Z</time>
      </trkpt>
      <trkpt lat="47.14979" lon="5.91766">
        <ele>392.79487</ele>
        <time>2021-08-31T16:54:05.678Z</time>
      </trkpt>
      <trkpt lat="47.14996" lon="5.91771">
        <ele>391.44979</ele>
        <time>2021-08-31T16:53:54.294Z</time>
      </trkpt>
      <trkpt lat="47.15066" lon="5.91799">
        <ele>385.71325</ele>
        <time>2021-08-31T16:53:06.834Z</time>
      </trkpt>
      <trkpt lat="47.15165" lon="5.91812">
        <ele>377.831533</ele>
        <time>2021-08-31T16:51:57.554Z</time>
      </trkpt>
      <trkpt lat="47.15236" lon="5.91788">
        <ele>369.225987</ele>
        <time>2021-08-31T16:50:51.679Z</time>
      </trkpt>
      <trkpt lat="47.15317" lon="5.91735">
        <ele>357.921865</ele>
        <time>2021-08-31T16:49:22.611Z</time>
      </trkpt>
      <trkpt lat="47.15334" lon="5.91726">
        <ele>355.530866</ele>
        <time>2021-08-31T16:49:02.241Z</time>
      </trkpt>
      <trkpt lat="47.15354" lon="5.91726">
        <ele>352.99617</ele>
        <time>2021-08-31T16:48:44.058Z</time>
      </trkpt>
      <trkpt lat="47.15398" lon="5.91736">
        <ele>346.965692</ele>
        <time>2021-08-31T16:47:58.455Z</time>
      </trkpt>
      <trkpt lat="47.15406" lon="5.91735">
        <ele>345.882475</ele>
        <time>2021-08-31T16:47:48.009Z</time>
      </trkpt>
      <trkpt lat="47.15415" lon="5.91731">
        <ele>344.570443</ele>
        <time>2021-08-31T16:47:39.192Z</time>
      </trkpt>
      <trkpt lat="47.15422" lon="5.91728">
        <ele>343.596734</ele>
        <time>2021-08-31T16:47:32.248Z</time>
      </trkpt>
      <trkpt lat="47.15448" lon="5.91705">
        <ele>339.638521</ele>
        <time>2021-08-31T16:47:00.981Z</time>
      </trkpt>
      <trkpt lat="47.15457" lon="5.91689">
        <ele>337.719134</ele>
        <time>2021-08-31T16:46:46.634Z</time>
      </trkpt>
      <trkpt lat="47.1546" lon="5.91674">
        <ele>336.289104</ele>
        <time>2021-08-31T16:46:33.504Z</time>
      </trkpt>
      <trkpt lat="47.15456" lon="5.91654">
        <ele>334.330447</ele>
        <time>2021-08-31T16:46:19.860Z</time>
      </trkpt>
      <trkpt lat="47.15436" lon="5.91612">
        <ele>329.686972</ele>
        <time>2021-08-31T16:45:49.269Z</time>
      </trkpt>
      <trkpt lat="47.15464" lon="5.916">
        <ele>327.630692</ele>
        <time>2021-08-31T16:45:26.411Z</time>
      </trkpt>
      <trkpt lat="47.15479" lon="5.9159">
        <ele>326.450028</ele>
        <time>2021-08-31T16:45:14.450Z</time>
      </trkpt>
      <trkpt lat="47.15533" lon="5.91549">
        <ele>322.194018</ele>
        <time>2021-08-31T16:44:40.278Z</time>
      </trkpt>
      <trkpt lat="47.1553" lon="5.91495">
        <ele>319.604701</ele>
        <time>2021-08-31T16:44:22.164Z</time>
      </trkpt>
      <trkpt lat="47.15534" lon="5.9141">
        <ele>317.537203</ele>
        <time>2021-08-31T16:44:00.837Z</time>
      </trkpt>
      <trkpt lat="47.15547" lon="5.91421">
        <ele>317.954822</ele>
        <time>2021-08-31T16:43:56.295Z</time>
      </trkpt>
      <trkpt lat="47.15574" lon="5.91448">
        <ele>318.874265</ele>
        <time>2021-08-31T16:43:46.347Z</time>
      </trkpt>
      <trkpt lat="47.15626" lon="5.91482">
        <ele>320.460779</ele>
        <time>2021-08-31T16:43:31.805Z</time>
      </trkpt>
      <trkpt lat="47.15679" lon="5.91503">
        <ele>321.972187</ele>
        <time>2021-08-31T16:43:19.509Z</time>
      </trkpt>
      <trkpt lat="47.15791" lon="5.91563">
        <ele>332.50589</ele>
        <time>2021-08-31T16:42:53.013Z</time>
      </trkpt>
      <trkpt lat="47.15845" lon="5.91561">
        <ele>337.266094</ele>
        <time>2021-08-31T16:42:41.610Z</time>
      </trkpt>
      <trkpt lat="47.15874" lon="5.9155">
        <ele>339.9384</ele>
        <time>2021-08-31T16:42:35.043Z</time>
      </trkpt>
      <trkpt lat="47.15886" lon="5.91541">
        <ele>341.09641</ele>
        <time>2021-08-31T16:42:32.310Z</time>
      </trkpt>
      <trkpt lat="47.15925" lon="5.91479">
        <ele>346.182511</ele>
        <time>2021-08-31T16:42:19.790Z</time>
      </trkpt>
      <trkpt lat="47.15928" lon="5.91471">
        <ele>346.736336</ele>
        <time>2021-08-31T16:42:18.544Z</time>
      </trkpt>
      <trkpt lat="47.15932" lon="5.91461">
        <ele>347.410542</ele>
        <time>2021-08-31T16:42:16.801Z</time>
      </trkpt>
      <trkpt lat="47.15935" lon="5.91447">
        <ele>348.287721</ele>
        <time>2021-08-31T16:42:14.479Z</time>
      </trkpt>
      <trkpt lat="47.1595" lon="5.91424">
        <ele>350.199462</ele>
        <time>2021-08-31T16:42:09.835Z</time>
      </trkpt>
      <trkpt lat="47.16007" lon="5.9136">
        <ele>355.065559</ele>
        <time>2021-08-31T16:41:53.467Z</time>
      </trkpt>
      <trkpt lat="47.16019" lon="5.91346">
        <ele>355.722005</ele>
        <time>2021-08-31T16:41:49.398Z</time>
      </trkpt>
      <trkpt lat="47.16029" lon="5.91355">
        <ele>356.196147</ele>
        <time>2021-08-31T16:41:46.706Z</time>
      </trkpt>
      <trkpt lat="47.16115" lon="5.91289">
        <ele>360.197418</ele>
        <time>2021-08-31T16:41:21.974Z</time>
      </trkpt>
      <trkpt lat="47.16126" lon="5.91274">
        <ele>360.815956</ele>
        <time>2021-08-31T16:41:17.997Z</time>
      </trkpt>
      <trkpt lat="47.16147" lon="5.91247">
        <ele>361.441419</ele>
        <time>2021-08-31T16:41:10.065Z</time>
      </trkpt>
      <trkpt lat="47.16178" lon="5.91208">
        <ele>361.962188</ele>
        <time>2021-08-31T16:40:58.800Z</time>
      </trkpt>
      <trkpt lat="47.16241" lon="5.91159">
        <ele>362.890706</ele>
        <time>2021-08-31T16:40:38.271Z</time>
      </trkpt>
      <trkpt lat="47.16305" lon="5.91119">
        <ele>362.956029</ele>
        <time>2021-08-31T16:40:17.347Z</time>
      </trkpt>
      <trkpt lat="47.16332" lon="5.91103">
        <ele>362.150229</ele>
        <time>2021-08-31T16:40:07.859Z</time>
      </trkpt>
      <trkpt lat="47.1637" lon="5.91073">
        <ele>360.953358</ele>
        <time>2021-08-31T16:39:51.545Z</time>
      </trkpt>
      <trkpt lat="47.16404" lon="5.9104">
        <ele>359.839578</ele>
        <time>2021-08-31T16:39:32.860Z</time>
      </trkpt>
      <trkpt lat="47.16481" lon="5.9099">
        <ele>354.667581</ele>
        <time>2021-08-31T16:38:37.447Z</time>
      </trkpt>
      <trkpt lat="47.1651" lon="5.90961">
        <ele>351.05915</ele>
        <time>2021-08-31T16:38:09.604Z</time>
      </trkpt>
      <trkpt lat="47.1653" lon="5.90941">
        <ele>348.599346</ele>
        <time>2021-08-31T16:37:49.642Z</time>
      </trkpt>
      <trkpt lat="47.16529" lon="5.90932">
        <ele>347.968678</ele>
        <time>2021-08-31T16:37:46.999Z</time>
      </trkpt>
      <trkpt lat="47.16544" lon="5.90908">
        <ele>345.695849</ele>
        <time>2021-08-31T16:37:37.467Z</time>
      </trkpt>
      <trkpt lat="47.16547" lon="5.90894">
        <ele>344.672455</ele>
        <time>2021-08-31T16:37:33.180Z</time>
      </trkpt>
      <trkpt lat="47.16542" lon="5.9082">
        <ele>339.305829</ele>
        <time>2021-08-31T16:37:11.420Z</time>
      </trkpt>
      <trkpt lat="47.16544" lon="5.90811">
        <ele>338.456627</ele>
        <time>2021-08-31T16:37:08.639Z</time>
      </trkpt>
      <trkpt lat="47.16565" lon="5.90778">
        <ele>334.402793</ele>
        <time>2021-08-31T16:36:55.376Z</time>
      </trkpt>
      <trkpt lat="47.16565" lon="5.90772">
        <ele>333.864676</ele>
        <time>2021-08-31T16:36:53.615Z</time>
      </trkpt>
      <trkpt lat="47.16545" lon="5.90737">
        <ele>329.764183</ele>
        <time>2021-08-31T16:36:40.208Z</time>
      </trkpt>
      <trkpt lat="47.16551" lon="5.90731">
        <ele>328.818358</ele>
        <time>2021-08-31T16:36:37.118Z</time>
      </trkpt>
      <trkpt lat="47.16531" lon="5.90692">
        <ele>320.2</ele>
      </trkpt>
      <trkpt lat="47.16519" lon="5.90661">
        <ele>316.4</ele>
      </trkpt>
      <trkpt lat="47.16523" lon="5.90662">
        <ele>316.5</ele>
      </trkpt>
      <trkpt lat="47.16571" lon="5.90652">
        <ele>315.6</ele>
      </trkpt>
      <trkpt lat="47.16602" lon="5.90642">
        <ele>313.7</ele>
      </trkpt>
      <trkpt lat="47.16616" lon="5.90641">
        <ele>312.9</ele>
      </trkpt>
      <trkpt lat="47.16672" lon="5.9064">
        <ele>309.5</ele>
      </trkpt>
      <trkpt lat="47.16706" lon="5.9065">
        <ele>308.1</ele>
      </trkpt>
      <trkpt lat="47.16733" lon="5.90662">
        <ele>309.5</ele>
      </trkpt>
      <trkpt lat="47.16744" lon="5.9067">
        <ele>311.1</ele>
      </trkpt>
      <trkpt lat="47.16733" lon="5.90662">
        <ele>309.5</ele>
      </trkpt>
      <trkpt lat="47.16852" lon="5.90676">
        <ele>289.8</ele>
      </trkpt>
      <trkpt lat="47.16906" lon="5.90715">
        <ele>287.9</ele>
      </trkpt>
      <trkpt lat="47.16969" lon="5.90789">
        <ele>283.2</ele>
      </trkpt>
      <trkpt lat="47.17029" lon="5.90816">
        <ele>267.9</ele>
      </trkpt>
      <trkpt lat="47.17026" lon="5.90824">
        <ele>269.7</ele>
      </trkpt>
      <trkpt lat="47.17029" lon="5.90816">
        <ele>267.9</ele>
      </trkpt>
      <trkpt lat="47.17032" lon="5.90808">
        <ele>266.3</ele>
      </trkpt>
      <trkpt lat="47.17036" lon="5.90803">
        <ele>264.7</ele>
      </trkpt>
      <trkpt lat="47.17045" lon="5.908">
        <ele>262.1</ele>
      </trkpt>
      <trkpt lat="47.17054" lon="5.90794">
        <ele>259.6</ele>
      </trkpt>
      <trkpt lat="47.17092" lon="5.9074">
        <ele>253</ele>
      </trkpt>
      <trkpt lat="47.17114" lon="5.90717">
        <ele>249.4</ele>
      </trkpt>
      <trkpt lat="47.17122" lon="5.90708">
        <ele>248.6</ele>
      </trkpt>
      <trkpt lat="47.17143" lon="5.90683">
        <ele>247.8</ele>
      </trkpt>
      <trkpt lat="47.17151" lon="5.90669">
        <ele>248.4</ele>
      </trkpt>
      <trkpt lat="47.17162" lon="5.90645">
        <ele>248.1</ele>
      </trkpt>
      <trkpt lat="47.17187" lon="5.90586">
        <ele>246.9</ele>
      </trkpt>
      <trkpt lat="47.17223" lon="5.90508">
        <ele>246.9</ele>
      </trkpt>
      <trkpt lat="47.17226" lon="5.90503">
        <ele>247.3</ele>
      </trkpt>
      <trkpt lat="47.17232" lon="5.90489">
        <ele>247.5</ele>
      </trkpt>
      <trkpt lat="47.17234" lon="5.90491">
        <ele>247.8</ele>
      </trkpt>
      <trkpt lat="47.17232" lon="5.90489">
        <ele>247.5</ele>
      </trkpt>
      <trkpt lat="47.17237" lon="5.90478">
        <ele>247.6</ele>
      </trkpt>
      <trkpt lat="47.1724" lon="5.90474">
        <ele>247.8</ele>
      </trkpt>
      <trkpt lat="47.17256" lon="5.90436">
        <ele>248</ele>
      </trkpt>
      <trkpt lat="47.1726" lon="5.90425">
        <ele>247.9</ele>
      </trkpt>
      <trkpt lat="47.17263" lon="5.904">
        <ele>247.4</ele>
      </trkpt>
      <trkpt lat="47.17264" lon="5.90382">
        <ele>247.1</ele>
      </trkpt>
      <trkpt lat="47.1726" lon="5.90383">
        <ele>246.8</ele>
      </trkpt>
      <trkpt lat="47.17226" lon="5.90341">
        <ele>240.3</ele>
      </trkpt>
      <trkpt lat="47.17218" lon="5.90331">
        <ele>238.4</ele>
      </trkpt>
      <trkpt lat="47.17212" lon="5.90318">
        <ele>236.7</ele>
      </trkpt>
      <trkpt lat="47.1721" lon="5.90271">
        <ele>234.5</ele>
      </trkpt>
      <trkpt lat="47.17207" lon="5.90241">
        <ele>232.5</ele>
      </trkpt>
      <trkpt lat="47.17207" lon="5.90222">
        <ele>231</ele>
      </trkpt>
      <trkpt lat="47.17213" lon="5.90176">
        <ele>227.6</ele>
      </trkpt>
      <trkpt lat="47.17218" lon="5.90146">
        <ele>226.8</ele>
      </trkpt>
      <trkpt lat="47.17237" lon="5.90092">
        <ele>226.7</ele>
      </trkpt>
      <trkpt lat="47.17298" lon="5.89971">
        <ele>231.4</ele>
      </trkpt>
      <trkpt lat="47.17323" lon="5.89943">
        <ele>232.5</ele>
      </trkpt>
      <trkpt lat="47.17331" lon="5.89939">
        <ele>232.9</ele>
      </trkpt>
      <trkpt lat="47.17337" lon="5.89939">
        <ele>233.2</ele>
      </trkpt>
      <trkpt lat="47.1734" lon="5.89946">
        <ele>233.6</ele>
      </trkpt>
      <trkpt lat="47.17337" lon="5.89939">
        <ele>233.2</ele>
      </trkpt>
      <trkpt lat="47.17341" lon="5.89928">
        <ele>232.8</ele>
      </trkpt>
      <trkpt lat="47.17351" lon="5.89913">
        <ele>232.3</ele>
      </trkpt>
      <trkpt lat="47.17364" lon="5.89905">
        <ele>232.2</ele>
      </trkpt>
      <trkpt lat="47.17417" lon="5.89894">
        <ele>233.2</ele>
      </trkpt>
      <trkpt lat="47.17436" lon="5.89888">
        <ele>232.4</ele>
      </trkpt>
      <trkpt lat="47.17439" lon="5.89887">
        <ele>232.2</ele>
      </trkpt>
      <trkpt lat="47.17437" lon="5.89907">
        <ele>232.9</ele>
      </trkpt>
      <trkpt lat="47.17439" lon="5.89887">
        <ele>232.2</ele>
      </trkpt>
      <trkpt lat="47.17442" lon="5.89887">
        <ele>232.1</ele>
      </trkpt>
      <trkpt lat="47.17467" lon="5.89889">
        <ele>231.4</ele>
      </trkpt>
      <trkpt lat="47.17511" lon="5.89882">
        <ele>229.9</ele>
      </trkpt>
      <trkpt lat="47.17537" lon="5.89884">
        <ele>229.3</ele>
      </trkpt>
      <trkpt lat="47.17547" lon="5.89885">
        <ele>229.1</ele>
      </trkpt>
      <trkpt lat="47.17571" lon="5.89894">
        <ele>228.8</ele>
      </trkpt>
      <trkpt lat="47.17571" lon="5.89894">
        <ele>228.8</ele>
      </trkpt>
      <trkpt lat="47.17622" lon="5.89917">
        <ele>228.5</ele>
      </trkpt>
      <trkpt lat="47.17669" lon="5.89959">
        <ele>227.5</ele>
      </trkpt>
      <trkpt lat="47.17745" lon="5.90039">
        <ele>227.9</ele>
      </trkpt>
      <trkpt lat="47.17815" lon="5.90131">
        <ele>228.2</ele>
      </trkpt>
      <trkpt lat="47.17894" lon="5.90226">
        <ele>226.6</ele>
      </trkpt>
      <trkpt lat="47.17889" lon="5.90223">
        <ele>226.8</ele>
      </trkpt>
      <trkpt lat="47.1788" lon="5.90229">
        <ele>227</ele>
      </trkpt>
      <trkpt lat="47.17854" lon="5.90281">
        <ele>227.4</ele>
      </trkpt>
      <trkpt lat="47.17854" lon="5.90281">
        <ele>227.4</ele>
      </trkpt>
      <trkpt lat="47.17854" lon="5.90281">
        <ele>227.4</ele>
      </trkpt>
      <trkpt lat="47.17844" lon="5.90297">
        <ele>227.4</ele>
      </trkpt>
      <trkpt lat="47.17789" lon="5.90343">
        <ele>226.5</ele>
      </trkpt>
      <trkpt lat="47.17761" lon="5.90385">
        <ele>226.2</ele>
      </trkpt>
      <trkpt lat="47.17742" lon="5.90401">
        <ele>226</ele>
      </trkpt>
      <trkpt lat="47.17718" lon="5.9041">
        <ele>226</ele>
      </trkpt>
      <trkpt lat="47.17693" lon="5.90416">
        <ele>226</ele>
      </trkpt>
      <trkpt lat="47.17677" lon="5.90425">
        <ele>225.9</ele>
      </trkpt>
      <trkpt lat="47.1765" lon="5.90432">
        <ele>225.8</ele>
      </trkpt>
      <trkpt lat="47.17602" lon="5.90437">
        <ele>225.6</ele>
      </trkpt>
      <trkpt lat="47.17581" lon="5.90445">
        <ele>225.5</ele>
      </trkpt>
      <trkpt lat="47.17561" lon="5.90458">
        <ele>226.3</ele>
      </trkpt>
      <trkpt lat="47.17542" lon="5.90469">
        <ele>227.4</ele>
      </trkpt>
      <trkpt lat="47.17513" lon="5.90483">
        <ele>229.1</ele>
      </trkpt>
      <trkpt lat="47.17501" lon="5.90485">
        <ele>229.9</ele>
      </trkpt>
      <trkpt lat="47.17495" lon="5.90478">
        <ele>230.9</ele>
      </trkpt>
      <trkpt lat="47.17479" lon="5.90444">
        <ele>234.3</ele>
      </trkpt>
      <trkpt lat="47.17469" lon="5.90424">
        <ele>236.6</ele>
      </trkpt>
      <trkpt lat="47.17469" lon="5.90426">
        <ele>236.6</ele>
      </trkpt>
      <trkpt lat="47.17469" lon="5.90424">
        <ele>236.6</ele>
      </trkpt>
      <trkpt lat="47.17477" lon="5.90397">
        <ele>235.5</ele>
      </trkpt>
      <trkpt lat="47.17491" lon="5.90343">
        <ele>234.3</ele>
      </trkpt>
      <trkpt lat="47.17501" lon="5.90341">
        <ele>232.6</ele>
      </trkpt>
      <trkpt lat="47.17501" lon="5.90341">
        <ele>237.073409</ele>
        <time>2021-08-31T17:43:50.530Z</time>
      </trkpt>
      <trkpt lat="47.17504" lon="5.90341">
        <ele>236.953603</ele>
        <time>2021-08-31T17:43:50.962Z</time>
      </trkpt>
      <trkpt lat="47.17525" lon="5.90424">
        <ele>234.634835</ele>
        <time>2021-08-31T17:43:59.463Z</time>
      </trkpt>
      <trkpt lat="47.17533" lon="5.90453">
        <ele>233.814498</ele>
        <time>2021-08-31T17:44:02.243Z</time>
      </trkpt>
      <trkpt lat="47.17574" lon="5.90613">
        <ele>230.438669</ele>
        <time>2021-08-31T17:44:18.343Z</time>
      </trkpt>
      <trkpt lat="47.17588" lon="5.9066">
        <ele>230.060909</ele>
        <time>2021-08-31T17:44:23.745Z</time>
      </trkpt>
      <trkpt lat="47.17713" lon="5.90905">
        <ele>231.503581</ele>
        <time>2021-08-31T17:45:08.468Z</time>
      </trkpt>
      <trkpt lat="47.17727" lon="5.90921">
        <ele>231.96172</ele>
        <time>2021-08-31T17:45:14.966Z</time>
      </trkpt>
      <trkpt lat="47.17733" lon="5.90926">
        <ele>232.142086</ele>
        <time>2021-08-31T17:45:17.413Z</time>
      </trkpt>
      <trkpt lat="47.17736" lon="5.90928">
        <ele>232.214005</ele>
        <time>2021-08-31T17:45:18.668Z</time>
      </trkpt>
      <trkpt lat="47.17746" lon="5.90936">
        <ele>232.508246</ele>
        <time>2021-08-31T17:45:24.333Z</time>
      </trkpt>
      <trkpt lat="47.17772" lon="5.90948">
        <ele>233.188628</ele>
        <time>2021-08-31T17:45:35.354Z</time>
      </trkpt>
      <trkpt lat="47.17788" lon="5.9095">
        <ele>233.908852</ele>
        <time>2021-08-31T17:45:43.258Z</time>
      </trkpt>
      <trkpt lat="47.17787" lon="5.90955">
        <ele>234.174154</ele>
        <time>2021-08-31T17:45:44.954Z</time>
      </trkpt>
      <trkpt lat="47.17787" lon="5.90972">
        <ele>235.197752</ele>
        <time>2021-08-31T17:45:50.590Z</time>
      </trkpt>
      <trkpt lat="47.17787" lon="5.90983">
        <ele>235.852993</ele>
        <time>2021-08-31T17:45:55.762Z</time>
      </trkpt>
      <trkpt lat="47.1779" lon="5.91014">
        <ele>237.666112</ele>
        <time>2021-08-31T17:46:07.961Z</time>
      </trkpt>
      <trkpt lat="47.17783" lon="5.9106">
        <ele>240.454215</ele>
        <time>2021-08-31T17:46:28.556Z</time>
      </trkpt>
      <trkpt lat="47.17776" lon="5.91078">
        <ele>241.643665</ele>
        <time>2021-08-31T17:46:37.071Z</time>
      </trkpt>
      <trkpt lat="47.17782" lon="5.91084">
        <ele>242.282827</ele>
        <time>2021-08-31T17:46:44.424Z</time>
      </trkpt>
      <trkpt lat="47.17799" lon="5.91117">
        <ele>244.648628</ele>
        <time>2021-08-31T17:47:04.482Z</time>
      </trkpt>
      <trkpt lat="47.17819" lon="5.91146">
        <ele>247.098661</ele>
        <time>2021-08-31T17:47:28.456Z</time>
      </trkpt>
      <trkpt lat="47.17819" lon="5.91146">
        <ele>245.8</ele>
      </trkpt>
      <trkpt lat="47.17862" lon="5.91196">
        <ele>250.2</ele>
      </trkpt>
      <trkpt lat="47.17888" lon="5.91219">
        <ele>250.4</ele>
      </trkpt>
      <trkpt lat="47.17921" lon="5.91252">
        <ele>249.2</ele>
      </trkpt>
      <trkpt lat="47.17945" lon="5.91264">
        <ele>249.8</ele>
      </trkpt>
      <trkpt lat="47.17961" lon="5.91275">
        <ele>250.1</ele>
      </trkpt>
      <trkpt lat="47.17979" lon="5.91294">
        <ele>250.2</ele>
      </trkpt>
      <trkpt lat="47.18044" lon="5.91351">
        <ele>250.7</ele>
      </trkpt>
      <trkpt lat="47.18066" lon="5.91385">
        <ele>250.5</ele>
      </trkpt>
      <trkpt lat="47.18089" lon="5.91427">
        <ele>250.1</ele>
      </trkpt>
      <trkpt lat="47.18116" lon="5.91464">
        <ele>252.8</ele>
      </trkpt>
      <trkpt lat="47.18132" lon="5.91497">
        <ele>253.6</ele>
      </trkpt>
      <trkpt lat="47.18148" lon="5.91538">
        <ele>253.4</ele>
      </trkpt>
      <trkpt lat="47.18153" lon="5.91564">
        <ele>253</ele>
      </trkpt>
      <trkpt lat="47.18164" lon="5.91609">
        <ele>251.8</ele>
      </trkpt>
      <trkpt lat="47.1817" lon="5.91723">
        <ele>251.3</ele>
      </trkpt>
      <trkpt lat="47.1818" lon="5.91786">
        <ele>252.2</ele>
      </trkpt>
      <trkpt lat="47.18186" lon="5.91807">
        <ele>252.5</ele>
      </trkpt>
      <trkpt lat="47.18189" lon="5.91845">
        <ele>252.7</ele>
      </trkpt>
      <trkpt lat="47.18186" lon="5.91863">
        <ele>252.7</ele>
      </trkpt>
      <trkpt lat="47.18177" lon="5.91894">
        <ele>253.2</ele>
      </trkpt>
      <trkpt lat="47.18176" lon="5.91898">
        <ele>253.2</ele>
      </trkpt>
      <trkpt lat="47.18176" lon="5.91898">
        <ele>253.2</ele>
      </trkpt>
      <trkpt lat="47.18159" lon="5.92024">
        <ele>267.335424</ele>
        <time>2021-08-31T17:55:37.390Z</time>
      </trkpt>
      <trkpt lat="47.18185" lon="5.92079">
        <ele>264.543749</ele>
        <time>2021-08-31T17:55:47.655Z</time>
      </trkpt>
      <trkpt lat="47.18227" lon="5.92115">
        <ele>261.990483</ele>
        <time>2021-08-31T17:55:58.769Z</time>
      </trkpt>
      <trkpt lat="47.18251" lon="5.92149">
        <ele>260.231514</ele>
        <time>2021-08-31T17:56:06.694Z</time>
      </trkpt>
      <trkpt lat="47.18262" lon="5.92182">
        <ele>258.885643</ele>
        <time>2021-08-31T17:56:13.264Z</time>
      </trkpt>
      <trkpt lat="47.18278" lon="5.92206">
        <ele>257.685438</ele>
        <time>2021-08-31T17:56:19.042Z</time>
      </trkpt>
      <trkpt lat="47.18309" lon="5.92273">
        <ele>255.355127</ele>
        <time>2021-08-31T17:56:33.038Z</time>
      </trkpt>
      <trkpt lat="47.18365" lon="5.9232">
        <ele>253.197637</ele>
        <time>2021-08-31T17:56:49.227Z</time>
      </trkpt>
      <trkpt lat="47.18391" lon="5.92368">
        <ele>251.795081</ele>
        <time>2021-08-31T17:56:59.878Z</time>
      </trkpt>
      <trkpt lat="47.1841" lon="5.92382">
        <ele>251.076445</ele>
        <time>2021-08-31T17:57:05.574Z</time>
      </trkpt>
      <trkpt lat="47.18412" lon="5.92386">
        <ele>250.95476</ele>
        <time>2021-08-31T17:57:06.434Z</time>
      </trkpt>
      <trkpt lat="47.18422" lon="5.9237">
        <ele>250.442111</ele>
        <time>2021-08-31T17:57:10.349Z</time>
      </trkpt>
      <trkpt lat="47.18448" lon="5.92346">
        <ele>249.966774</ele>
        <time>2021-08-31T17:57:18.527Z</time>
      </trkpt>
      <trkpt lat="47.18471" lon="5.9234">
        <ele>249.653637</ele>
        <time>2021-08-31T17:57:24.742Z</time>
      </trkpt>
      <trkpt lat="47.18565" lon="5.92404">
        <ele>248.219621</ele>
        <time>2021-08-31T17:57:54.136Z</time>
      </trkpt>
      <trkpt lat="47.1861" lon="5.9241">
        <ele>248.149428</ele>
        <time>2021-08-31T17:58:10.200Z</time>
      </trkpt>
      <trkpt lat="47.18688" lon="5.92448">
        <ele>249.264448</ele>
        <time>2021-08-31T17:58:39.255Z</time>
      </trkpt>
      <trkpt lat="47.1875" lon="5.92487">
        <ele>250.175098</ele>
        <time>2021-08-31T17:59:08.442Z</time>
      </trkpt>
      <trkpt lat="47.1875" lon="5.92486">
        <ele>250.181272</ele>
        <time>2021-08-31T17:59:08.639Z</time>
      </trkpt>
      <trkpt lat="47.18762" lon="5.92487">
        <ele>250.371453</ele>
        <time>2021-08-31T17:59:13.783Z</time>
      </trkpt>
      <trkpt lat="47.18776" lon="5.92499">
        <ele>250.8114</ele>
        <time>2021-08-31T17:59:20.716Z</time>
      </trkpt>
      <trkpt lat="47.18771" lon="5.92497">
        <ele>250.952095</ele>
        <time>2021-08-31T17:59:22.933Z</time>
      </trkpt>
      <trkpt lat="47.18776" lon="5.92497">
        <ele>251.087864</ele>
        <time>2021-08-31T17:59:25.071Z</time>
      </trkpt>
      <trkpt lat="47.18769" lon="5.92498">
        <ele>251.278833</ele>
        <time>2021-08-31T17:59:28.081Z</time>
      </trkpt>
      <trkpt lat="47.18769" lon="5.92502">
        <ele>251.352648</ele>
        <time>2021-08-31T17:59:29.244Z</time>
      </trkpt>
      <trkpt lat="47.18778" lon="5.92514">
        <ele>251.682436</ele>
        <time>2021-08-31T17:59:34.440Z</time>
      </trkpt>
      <trkpt lat="47.18826" lon="5.92521">
        <ele>252.9922</ele>
        <time>2021-08-31T17:59:55.075Z</time>
      </trkpt>
      <trkpt lat="47.18857" lon="5.92547">
        <ele>253.961098</ele>
        <time>2021-08-31T18:00:10.340Z</time>
      </trkpt>
      <trkpt lat="47.18876" lon="5.92555">
        <ele>254.497724</ele>
        <time>2021-08-31T18:00:18.795Z</time>
      </trkpt>
      <trkpt lat="47.18899" lon="5.92577">
        <ele>255.215774</ele>
        <time>2021-08-31T18:00:30.531Z</time>
      </trkpt>
      <trkpt lat="47.18882" lon="5.92646">
        <ele>255.681726</ele>
        <time>2021-08-31T18:00:51.941Z</time>
      </trkpt>
      <trkpt lat="47.18864" lon="5.92715">
        <ele>256.147678</ele>
        <time>2021-08-31T18:01:13.348Z</time>
      </trkpt>
      <trkpt lat="47.18867" lon="5.92713">
        <ele>256.17834</ele>
        <time>2021-08-31T18:01:14.757Z</time>
      </trkpt>
      <trkpt lat="47.18869" lon="5.92719">
        <ele>256.220621</ele>
        <time>2021-08-31T18:01:16.700Z</time>
      </trkpt>
      <trkpt lat="47.18865" lon="5.92739">
        <ele>256.352521</ele>
        <time>2021-08-31T18:01:22.759Z</time>
      </trkpt>
      <trkpt lat="47.18887" lon="5.92781">
        <ele>256.688015</ele>
        <time>2021-08-31T18:01:38.171Z</time>
      </trkpt>
      <trkpt lat="47.18885" lon="5.92814">
        <ele>256.832819</ele>
        <time>2021-08-31T18:01:47.800Z</time>
      </trkpt>
      <trkpt lat="47.18862" lon="5.92873">
        <ele>255.9594</ele>
        <time>2021-08-31T18:02:07.553Z</time>
      </trkpt>
      <trkpt lat="47.18838" lon="5.92931">
        <ele>255.085978</ele>
        <time>2021-08-31T18:02:27.307Z</time>
      </trkpt>
      <trkpt lat="47.1878" lon="5.93017">
        <ele>253.528722</ele>
        <time>2021-08-31T18:03:02.532Z</time>
      </trkpt>
      <trkpt lat="47.18741" lon="5.93118">
        <ele>253.017928</ele>
        <time>2021-08-31T18:03:36.298Z</time>
      </trkpt>
      <trkpt lat="47.18718" lon="5.93163">
        <ele>252.788266</ele>
        <time>2021-08-31T18:03:52.664Z</time>
      </trkpt>
      <trkpt lat="47.18718" lon="5.9317">
        <ele>252.759715</ele>
        <time>2021-08-31T18:03:54.698Z</time>
      </trkpt>
      <trkpt lat="47.18724" lon="5.93178">
        <ele>252.711119</ele>
        <time>2021-08-31T18:03:58.161Z</time>
      </trkpt>
      <trkpt lat="47.18761" lon="5.93203">
        <ele>252.466761</ele>
        <time>2021-08-31T18:04:15.574Z</time>
      </trkpt>
      <trkpt lat="47.18758" lon="5.93225">
        <ele>252.466484</ele>
        <time>2021-08-31T18:04:22.153Z</time>
      </trkpt>
      <trkpt lat="47.1881" lon="5.9324">
        <ele>253.564598</ele>
        <time>2021-08-31T18:04:42.998Z</time>
      </trkpt>
      <trkpt lat="47.18842" lon="5.93233">
        <ele>254.23357</ele>
        <time>2021-08-31T18:04:56.624Z</time>
      </trkpt>
      <trkpt lat="47.18967" lon="5.93234">
        <ele>257.102599</ele>
        <time>2021-08-31T18:05:53.579Z</time>
      </trkpt>
      <trkpt lat="47.18988" lon="5.93227">
        <ele>257.720127</ele>
        <time>2021-08-31T18:06:03.300Z</time>
      </trkpt>
      <trkpt lat="47.19056" lon="5.93238">
        <ele>259.708596</ele>
        <time>2021-08-31T18:06:35.212Z</time>
      </trkpt>
      <trkpt lat="47.19144" lon="5.93203">
        <ele>262.256009</ele>
        <time>2021-08-31T18:07:18.032Z</time>
      </trkpt>
      <trkpt lat="47.19161" lon="5.93172">
        <ele>263.010518</ele>
        <time>2021-08-31T18:07:30.216Z</time>
      </trkpt>
      <trkpt lat="47.19168" lon="5.93158">
        <ele>263.320449</ele>
        <time>2021-08-31T18:07:36.322Z</time>
      </trkpt>
      <trkpt lat="47.1917" lon="5.93148">
        <ele>263.522429</ele>
        <time>2021-08-31T18:07:38.533Z</time>
      </trkpt>
      <trkpt lat="47.19186" lon="5.93137">
        <ele>264.000694</ele>
        <time>2021-08-31T18:07:46.057Z</time>
      </trkpt>
      <trkpt lat="47.19216" lon="5.93091">
        <ele>265.185396</ele>
        <time>2021-08-31T18:08:06.469Z</time>
      </trkpt>
      <trkpt lat="47.19306" lon="5.93014">
        <ele>266.803387</ele>
        <time>2021-08-31T18:08:50.838Z</time>
      </trkpt>
      <trkpt lat="47.19338" lon="5.93">
        <ele>267.096114</ele>
        <time>2021-08-31T18:09:02.580Z</time>
      </trkpt>
      <trkpt lat="47.19395" lon="5.93013">
        <ele>267.612907</ele>
        <time>2021-08-31T18:09:22.289Z</time>
      </trkpt>
      <trkpt lat="47.19566" lon="5.93109">
        <ele>266.049343</ele>
        <time>2021-08-31T18:10:15.170Z</time>
      </trkpt>
      <trkpt lat="47.1958" lon="5.93129">
        <ele>265.838831</ele>
        <time>2021-08-31T18:10:20.817Z</time>
      </trkpt>
      <trkpt lat="47.19587" lon="5.93157">
        <ele>265.766369</ele>
        <time>2021-08-31T18:10:26.438Z</time>
      </trkpt>
      <trkpt lat="47.19587" lon="5.93163">
        <ele>265.752324</ele>
        <time>2021-08-31T18:10:27.545Z</time>
      </trkpt>
      <trkpt lat="47.19592" lon="5.93163">
        <ele>265.736276</ele>
        <time>2021-08-31T18:10:28.800Z</time>
      </trkpt>
      <trkpt lat="47.19611" lon="5.93164">
        <ele>265.664839</ele>
        <time>2021-08-31T18:10:34.660Z</time>
      </trkpt>
      <trkpt lat="47.19659" lon="5.93191">
        <ele>265.47972</ele>
        <time>2021-08-31T18:10:49.765Z</time>
      </trkpt>
      <trkpt lat="47.19799" lon="5.93273">
        <ele>266.062185</ele>
        <time>2021-08-31T18:11:41.286Z</time>
      </trkpt>
      <trkpt lat="47.1986" lon="5.93309">
        <ele>266.87418</ele>
        <time>2021-08-31T18:12:07.845Z</time>
      </trkpt>
      <trkpt lat="47.20023" lon="5.93404">
        <ele>269.06109</ele>
        <time>2021-08-31T18:13:18.264Z</time>
      </trkpt>
      <trkpt lat="47.20089" lon="5.93442">
        <ele>269.778227</ele>
        <time>2021-08-31T18:13:42.577Z</time>
      </trkpt>
      <trkpt lat="47.20192" lon="5.93502">
        <ele>270.295565</ele>
        <time>2021-08-31T18:14:16.773Z</time>
      </trkpt>
      <trkpt lat="47.20293" lon="5.93561">
        <ele>272.880417</ele>
        <time>2021-08-31T18:14:59.285Z</time>
      </trkpt>
      <trkpt lat="47.20314" lon="5.93573">
        <ele>273.73578</ele>
        <time>2021-08-31T18:15:10.507Z</time>
      </trkpt>
      <trkpt lat="47.20585" lon="5.93732">
        <ele>287.034708</ele>
        <time>2021-08-31T18:18:04.214Z</time>
      </trkpt>
      <trkpt lat="47.2061" lon="5.93693">
        <ele>287.469298</ele>
        <time>2021-08-31T18:18:20.794Z</time>
      </trkpt>
      <trkpt lat="47.20623" lon="5.93673">
        <ele>287.699991</ele>
        <time>2021-08-31T18:18:28.731Z</time>
      </trkpt>
      <trkpt lat="47.20656" lon="5.93635">
        <ele>288.206828</ele>
        <time>2021-08-31T18:18:44.027Z</time>
      </trkpt>
      <trkpt lat="47.20702" lon="5.93566">
        <ele>288.996674</ele>
        <time>2021-08-31T18:19:03.348Z</time>
      </trkpt>
      <trkpt lat="47.20731" lon="5.93542">
        <ele>288.365393</ele>
        <time>2021-08-31T18:19:12.286Z</time>
      </trkpt>
      <trkpt lat="47.20776" lon="5.93513">
        <ele>287.430942</ele>
        <time>2021-08-31T18:19:24.862Z</time>
      </trkpt>
      <trkpt lat="47.20809" lon="5.93503">
        <ele>286.788923</ele>
        <time>2021-08-31T18:19:33.977Z</time>
      </trkpt>
      <trkpt lat="47.20859" lon="5.93506">
        <ele>285.83189</ele>
        <time>2021-08-31T18:19:47.830Z</time>
      </trkpt>
      <trkpt lat="47.20893" lon="5.93495">
        <ele>285.517248</ele>
        <time>2021-08-31T18:19:58.134Z</time>
      </trkpt>
      <trkpt lat="47.20916" lon="5.93488">
        <ele>285.474884</ele>
        <time>2021-08-31T18:20:05.401Z</time>
      </trkpt>
      <trkpt lat="47.20942" lon="5.93486">
        <ele>285.426363</ele>
        <time>2021-08-31T18:20:13.415Z</time>
      </trkpt>
      <trkpt lat="47.20943" lon="5.93472">
        <ele>285.409223</ele>
        <time>2021-08-31T18:20:17.101Z</time>
      </trkpt>
      <trkpt lat="47.20958" lon="5.93402">
        <ele>285.317615</ele>
        <time>2021-08-31T18:20:32.807Z</time>
      </trkpt>
      <trkpt lat="47.20972" lon="5.93367">
        <ele>285.267889</ele>
        <time>2021-08-31T18:20:42.483Z</time>
      </trkpt>
      <trkpt lat="47.20984" lon="5.93272">
        <ele>285.071741</ele>
        <time>2021-08-31T18:21:05.090Z</time>
      </trkpt>
      <trkpt lat="47.20988" lon="5.9326">
        <ele>285.03924</ele>
        <time>2021-08-31T18:21:08.550Z</time>
      </trkpt>
      <trkpt lat="47.20991" lon="5.93249">
        <ele>285.011017</ele>
        <time>2021-08-31T18:21:09.787Z</time>
      </trkpt>
      <trkpt lat="47.20985" lon="5.93216">
        <ele>284.927767</ele>
        <time>2021-08-31T18:21:14.204Z</time>
      </trkpt>
      <trkpt lat="47.20999" lon="5.93125">
        <ele>284.701977</ele>
        <time>2021-08-31T18:21:25.748Z</time>
      </trkpt>
      <trkpt lat="47.20996" lon="5.93023">
        <ele>284.561385</ele>
        <time>2021-08-31T18:21:38.883Z</time>
      </trkpt>
      <trkpt lat="47.20994" lon="5.93">
        <ele>284.551313</ele>
        <time>2021-08-31T18:21:41.648Z</time>
      </trkpt>
      <trkpt lat="47.20981" lon="5.92972">
        <ele>284.536479</ele>
        <time>2021-08-31T18:21:46.501Z</time>
      </trkpt>
    </trkseg>
  </trk>
</gpx>